Wetterdaten: Samstag, 07.01.2023
Datum Zeit Temp. Aussen Temp. o. S. Temp +5cm Feuchte Auss Luftdruck Regen Sonnenschein Regendauer Solar Windben Empfang
07.01.2023 00:00 10,5 C 9,4 C 6,7 C 92 % 1018,2 hPa 0,0 l/m 0 min 0 min 0 W/m 3,2 km/h (1 Bft) 97,87 %
07.01.2023 00:02 10,5 C 9,4 C 6,7 C 92 % 1018,2 hPa 0,0 l/m 0 min 0 min 0 W/m 3,2 km/h (1 Bft) 94,74 %
07.01.2023 00:04 10,4 C 9,4 C 6,7 C 92 % 1018,1 hPa 0,0 l/m 0 min 0 min 0 W/m 9,7 km/h (2 Bft) 98,00 %
07.01.2023 00:07 10,4 C 9,4 C 6,7 C 92 % 1018,2 hPa 0,0 l/m 0 min 0 min 0 W/m 6,4 km/h (2 Bft) 97,18 %
07.01.2023 00:08 10,4 C 9,4 C 6,7 C 92 % 1018,2 hPa 0,0 l/m 0 min 0 min 0 W/m 6,4 km/h (2 Bft) 100,00 %
07.01.2023 00:12 10,3 C 9,4 C 6,7 C 92 % 1018,3 hPa 0,0 l/m 0 min 0 min 0 W/m 9,7 km/h (2 Bft) 97,67 %
07.01.2023 00:14 10,3 C 9,4 C 6,7 C 92 % 1018,3 hPa 0,0 l/m 0 min 0 min 0 W/m 9,7 km/h (2 Bft) 100,00 %
07.01.2023 00:16 10,3 C 9,4 C 6,7 C 92 % 1018,2 hPa 0,0 l/m 0 min 0 min 0 W/m 6,4 km/h (2 Bft) 97,87 %
07.01.2023 00:18 10,3 C 9,4 C 6,7 C 92 % 1018,2 hPa 0,0 l/m 0 min 0 min 0 W/m 6,4 km/h (2 Bft) 100,00 %
07.01.2023 00:20 10,2 C 9,4 C 6,7 C 92 % 1018,2 hPa 0,0 l/m 0 min 0 min 0 W/m 6,4 km/h (2 Bft) 100,00 %
07.01.2023 00:22 10,2 C 9,4 C 6,7 C 92 % 1018,2 hPa 0,0 l/m 0 min 0 min 0 W/m 6,4 km/h (2 Bft) 100,00 %
07.01.2023 00:27 10,2 C 9,4 C 6,7 C 93 % 1018,1 hPa 0,0 l/m 0 min 0 min 0 W/m 12,9 km/h (3 Bft) 91,18 %
07.01.2023 00:28 10,2 C 9,4 C 6,7 C 93 % 1018,1 hPa 0,0 l/m 0 min 0 min 0 W/m 3,2 km/h (1 Bft) 100,00 %
07.01.2023 00:30 10,1 C 9,4 C 6,7 C 93 % 1018,1 hPa 0,0 l/m 0 min 0 min 0 W/m 9,7 km/h (2 Bft) 97,87 %
07.01.2023 00:32 10,1 C 9,4 C 6,7 C 93 % 1018,1 hPa 0,0 l/m 0 min 0 min 0 W/m 3,2 km/h (1 Bft) 95,74 %
07.01.2023 00:34 10,1 C 8,9 C 6,7 C 93 % 1018,1 hPa 0,0 l/m 0 min 0 min 0 W/m 6,4 km/h (2 Bft) 93,62 %
07.01.2023 00:36 10,1 C 9,4 C 6,7 C 93 % 1018,0 hPa 0,0 l/m 0 min 0 min 0 W/m 9,7 km/h (2 Bft) 97,83 %
07.01.2023 00:38 10,1 C 8,9 C 6,7 C 93 % 1018,0 hPa 0,0 l/m 0 min 0 min 0 W/m 6,4 km/h (2 Bft) 95,74 %
07.01.2023 00:40 10,1 C 9,4 C 6,7 C 93 % 1018,0 hPa 0,0 l/m 0 min 0 min 0 W/m 6,4 km/h (2 Bft) 97,87 %
07.01.2023 00:42 10,1 C 8,9 C 6,7 C 93 % 1018,1 hPa 0,0 l/m 0 min 0 min 0 W/m 3,2 km/h (1 Bft) 97,87 %
07.01.2023 00:44 10,1 C 8,9 C 6,1 C 93 % 1018,0 hPa 0,0 l/m 0 min 0 min 0 W/m 6,4 km/h (2 Bft) 97,87 %
07.01.2023 00:46 10,1 C 8,9 C 6,7 C 93 % 1018,0 hPa 0,0 l/m 0 min 0 min 0 W/m 6,4 km/h (2 Bft) 97,87 %
07.01.2023 00:48 10,1 C 8,9 C 6,7 C 93 % 1018,0 hPa 0,0 l/m 0 min 0 min 0 W/m 6,4 km/h (2 Bft) 97,87 %
07.01.2023 00:50 10,0 C 9,4 C 6,7 C 93 % 1018,0 hPa 0,0 l/m 0 min 0 min 0 W/m 6,4 km/h (2 Bft) 97,83 %
07.01.2023 00:52 10,0 C 9,4 C 6,7 C 93 % 1018,0 hPa 0,0 l/m 0 min 0 min 0 W/m 6,4 km/h (2 Bft) 95,74 %
07.01.2023 00:54 10,0 C 9,4 C 6,7 C 93 % 1018,0 hPa 0,0 l/m 0 min 0 min 0 W/m 12,9 km/h (3 Bft) 97,87 %
07.01.2023 00:56 10,0 C 9,4 C 6,7 C 93 % 1018,0 hPa 0,0 l/m 0 min 0 min 0 W/m 6,4 km/h (2 Bft) 97,87 %
07.01.2023 00:58 10,0 C 9,4 C 6,7 C 93 % 1017,9 hPa 0,0 l/m 0 min 0 min 0 W/m 3,2 km/h (1 Bft) 97,87 %
07.01.2023 01:00 10,1 C 9,4 C 6,7 C 93 % 1017,9 hPa 0,0 l/m 0 min 0 min 0 W/m 6,4 km/h (2 Bft) 97,87 %
07.01.2023 01:02 10,1 C 9,4 C 6,7 C 93 % 1017,9 hPa 0,0 l/m 0 min 0 min 0 W/m 9,7 km/h (2 Bft) 97,87 %
07.01.2023 01:04 10,1 C 9,4 C 6,7 C 93 % 1017,8 hPa 0,0 l/m 0 min 0 min 0 W/m 6,4 km/h (2 Bft) 97,83 %
07.01.2023 01:06 10,1 C 9,4 C 6,7 C 93 % 1017,7 hPa 0,0 l/m 0 min 0 min 0 W/m 9,7 km/h (2 Bft) 94,92 %
07.01.2023 01:08 10,1 C 9,4 C 6,7 C 93 % 1017,7 hPa 0,0 l/m 0 min 0 min 0 W/m 6,4 km/h (2 Bft) 94,29 %
07.01.2023 01:10 10,1 C 9,4 C 6,7 C 93 % 1017,7 hPa 0,0 l/m 0 min 0 min 0 W/m 12,9 km/h (3 Bft) 95,74 %
07.01.2023 01:12 10,0 C 9,4 C 6,7 C 93 % 1017,6 hPa 0,0 l/m 0 min 0 min 0 W/m 6,4 km/h (2 Bft) 97,87 %
07.01.2023 01:14 10,0 C 9,4 C 6,7 C 93 % 1017,7 hPa 0,2 l/m 0 min 0 min 0 W/m 12,9 km/h (3 Bft) 97,87 %
07.01.2023 01:16 10,0 C 8,9 C 6,7 C 93 % 1017,7 hPa 0,0 l/m 0 min 0 min 0 W/m 6,4 km/h (2 Bft) 97,87 %
07.01.2023 01:18 10,0 C 8,9 C 6,7 C 93 % 1017,7 hPa 0,0 l/m 0 min 0 min 0 W/m 12,9 km/h (3 Bft) 97,83 %
07.01.2023 01:20 10,0 C 8,9 C 6,1 C 93 % 1017,7 hPa 0,0 l/m 0 min 0 min 0 W/m 6,4 km/h (2 Bft) 95,74 %
07.01.2023 01:22 10,0 C 8,9 C 6,1 C 93 % 1017,7 hPa 0,0 l/m 0 min 0 min 0 W/m 6,4 km/h (2 Bft) 95,74 %
07.01.2023 01:24 9,9 C 8,9 C 6,1 C 93 % 1017,7 hPa 0,0 l/m 0 min 0 min 0 W/m 6,4 km/h (2 Bft) 97,87 %
07.01.2023 01:26 9,9 C 8,9 C 6,1 C 93 % 1017,7 hPa 0,0 l/m 0 min 0 min 0 W/m 3,2 km/h (1 Bft) 95,74 %
07.01.2023 01:28 9,9 C 8,9 C 6,1 C 93 % 1017,8 hPa 0,0 l/m 0 min 0 min 0 W/m 6,4 km/h (2 Bft) 93,62 %
07.01.2023 01:30 9,9 C 8,9 C 6,1 C 93 % 1017,7 hPa 0,0 l/m 0 min 0 min 0 W/m 6,4 km/h (2 Bft) 95,74 %
07.01.2023 01:32 9,9 C 8,9 C 6,1 C 93 % 1017,7 hPa 0,0 l/m 0 min 0 min 0 W/m 6,4 km/h (2 Bft) 97,83 %
07.01.2023 01:34 9,8 C 8,9 C 6,1 C 93 % 1017,7 hPa 0,0 l/m 0 min 0 min 0 W/m 6,4 km/h (2 Bft) 95,74 %
07.01.2023 01:36 9,8 C 8,9 C 6,1 C 93 % 1017,7 hPa 0,0 l/m 0 min 0 min 0 W/m 6,4 km/h (2 Bft) 95,74 %
07.01.2023 01:38 9,8 C 8,9 C 6,1 C 93 % 1017,7 hPa 0,0 l/m 0 min 0 min 0 W/m 9,7 km/h (2 Bft) 97,87 %
07.01.2023 01:40 9,8 C 8,9 C 6,1 C 93 % 1017,6 hPa 0,0 l/m 0 min 0 min 0 W/m 6,4 km/h (2 Bft) 100,00 %
07.01.2023 01:42 9,8 C 8,9 C 6,1 C 93 % 1017,6 hPa 0,0 l/m 0 min 0 min 0 W/m 6,4 km/h (2 Bft) 100,00 %
07.01.2023 01:44 9,8 C 8,9 C 6,1 C 93 % 1017,6 hPa 0,0 l/m 0 min 0 min 0 W/m 3,2 km/h (1 Bft) 100,00 %
07.01.2023 01:46 9,8 C 8,9 C 6,1 C 93 % 1017,6 hPa 0,0 l/m 0 min 0 min 0 W/m 6,4 km/h (2 Bft) 100,00 %
07.01.2023 01:48 9,8 C 8,9 C 6,1 C 93 % 1017,6 hPa 0,0 l/m 0 min 0 min 0 W/m 6,4 km/h (2 Bft) 100,00 %
07.01.2023 01:50 9,8 C 8,9 C 6,1 C 93 % 1017,5 hPa 0,0 l/m 0 min 0 min 0 W/m 3,2 km/h (1 Bft) 100,00 %
07.01.2023 01:52 9,8 C 8,9 C 6,1 C 93 % 1017,5 hPa 0,0 l/m 0 min 0 min 0 W/m 6,4 km/h (2 Bft) 100,00 %
07.01.2023 01:54 9,8 C 8,9 C 6,1 C 93 % 1017,5 hPa 0,0 l/m 0 min 0 min 0 W/m 6,4 km/h (2 Bft) 100,00 %
07.01.2023 01:56 9,8 C 8,9 C 6,1 C 93 % 1017,5 hPa 0,0 l/m 0 min 0 min 0 W/m 12,9 km/h (3 Bft) 100,00 %
07.01.2023 01:58 9,8 C 8,9 C 6,1 C 93 % 1017,4 hPa 0,0 l/m 0 min 0 min 0 W/m 3,2 km/h (1 Bft) 97,83 %
07.01.2023 02:00 9,8 C 8,9 C 6,1 C 93 % 1017,4 hPa 0,0 l/m 0 min 0 min 0 W/m 6,4 km/h (2 Bft) 100,00 %
07.01.2023 02:02 9,8 C 8,9 C 6,1 C 93 % 1017,5 hPa 0,0 l/m 0 min 0 min 0 W/m 6,4 km/h (2 Bft) 100,00 %
07.01.2023 02:04 9,8 C 8,9 C 6,1 C 93 % 1017,4 hPa 0,0 l/m 0 min 0 min 0 W/m 6,4 km/h (2 Bft) 97,87 %
07.01.2023 02:06 9,8 C 8,9 C 6,1 C 93 % 1017,4 hPa 0,0 l/m 0 min 0 min 0 W/m 9,7 km/h (2 Bft) 100,00 %
07.01.2023 02:08 9,8 C 8,9 C 6,7 C 93 % 1017,4 hPa 0,0 l/m 0 min 0 min 0 W/m 9,7 km/h (2 Bft) 100,00 %
07.01.2023 02:10 9,8 C 8,9 C 6,7 C 94 % 1017,3 hPa 0,0 l/m 0 min 0 min 0 W/m 3,2 km/h (1 Bft) 100,00 %
07.01.2023 02:14 9,8 C 8,9 C 6,1 C 94 % 1017,3 hPa 0,0 l/m 0 min 0 min 0 W/m 9,7 km/h (2 Bft) 100,00 %
07.01.2023 02:16 9,8 C 8,9 C 6,1 C 94 % 1017,3 hPa 0,0 l/m 0 min 0 min 0 W/m 3,2 km/h (1 Bft) 100,00 %
07.01.2023 02:18 9,8 C 8,9 C 6,1 C 94 % 1017,2 hPa 0,0 l/m 0 min 0 min 0 W/m 6,4 km/h (2 Bft) 100,00 %
07.01.2023 02:20 9,8 C 8,9 C 6,1 C 94 % 1017,2 hPa 0,0 l/m 0 min 0 min 0 W/m 12,9 km/h (3 Bft) 100,00 %
07.01.2023 02:22 9,8 C 8,9 C 6,1 C 94 % 1017,2 hPa 0,0 l/m 0 min 0 min 0 W/m 3,2 km/h (1 Bft) 95,74 %
07.01.2023 02:24 9,8 C 8,9 C 6,1 C 94 % 1017,2 hPa 0,0 l/m 0 min 0 min 0 W/m 9,7 km/h (2 Bft) 97,87 %
07.01.2023 02:26 9,8 C 8,9 C 6,1 C 94 % 1017,2 hPa 0,0 l/m 0 min 0 min 0 W/m 6,4 km/h (2 Bft) 97,30 %
07.01.2023 02:28 9,8 C 9,4 C 6,1 C 94 % 1017,2 hPa 0,0 l/m 0 min 0 min 0 W/m 9,7 km/h (2 Bft) 97,87 %
07.01.2023 02:30 9,8 C 8,9 C 6,1 C 94 % 1017,2 hPa 0,0 l/m 0 min 0 min 0 W/m 3,2 km/h (1 Bft) 95,74 %
07.01.2023 02:32 9,8 C 8,9 C 6,1 C 94 % 1017,2 hPa 0,0 l/m 0 min 0 min 0 W/m 6,4 km/h (2 Bft) 97,87 %
07.01.2023 02:34 9,8 C 9,4 C 6,1 C 94 % 1017,2 hPa 0,0 l/m 0 min 0 min 0 W/m 6,4 km/h (2 Bft) 95,74 %
07.01.2023 02:36 9,8 C 9,4 C 6,1 C 94 % 1017,2 hPa 0,0 l/m 0 min 0 min 0 W/m 6,4 km/h (2 Bft) 97,83 %
07.01.2023 02:38 9,8 C 9,4 C 6,1 C 94 % 1017,1 hPa 0,0 l/m 0 min 0 min 0 W/m 9,7 km/h (2 Bft) 97,87 %
07.01.2023 02:40 9,8 C 9,4 C 6,7 C 94 % 1017,2 hPa 0,0 l/m 0 min 0 min 0 W/m 6,4 km/h (2 Bft) 97,87 %
07.01.2023 02:42 9,9 C 9,4 C 6,7 C 94 % 1017,2 hPa 0,0 l/m 0 min 0 min 0 W/m 6,4 km/h (2 Bft) 97,87 %
07.01.2023 02:44 9,8 C 9,4 C 6,7 C 94 % 1017,1 hPa 0,0 l/m 0 min 0 min 0 W/m 6,4 km/h (2 Bft) 97,87 %
07.01.2023 02:46 9,8 C 9,4 C 6,7 C 94 % 1017,1 hPa 0,0 l/m 0 min 0 min 0 W/m 3,2 km/h (1 Bft) 97,87 %
07.01.2023 02:48 9,9 C 9,4 C 6,7 C 94 % 1017,2 hPa 0,0 l/m 0 min 0 min 0 W/m 6,4 km/h (2 Bft) 97,83 %
07.01.2023 02:50 9,9 C 9,4 C 6,7 C 94 % 1017,1 hPa 0,0 l/m 0 min 0 min 0 W/m 6,4 km/h (2 Bft) 95,74 %
07.01.2023 02:52 9,9 C 9,4 C 6,7 C 94 % 1017,1 hPa 0,0 l/m 0 min 0 min 0 W/m 6,4 km/h (2 Bft) 95,74 %
07.01.2023 02:54 9,9 C 9,4 C 6,7 C 94 % 1017,1 hPa 0,0 l/m 0 min 0 min 0 W/m 6,4 km/h (2 Bft) 95,74 %
07.01.2023 02:56 9,9 C 9,4 C 6,7 C 94 % 1017,1 hPa 0,0 l/m 0 min 0 min 0 W/m 3,2 km/h (1 Bft) 97,87 %
07.01.2023 02:58 9,9 C 9,4 C 6,7 C 94 % 1017,1 hPa 0,0 l/m 0 min 0 min 0 W/m 6,4 km/h (2 Bft) 97,87 %
07.01.2023 03:00 9,9 C 9,4 C 6,7 C 94 % 1017,1 hPa 0,0 l/m 0 min 0 min 0 W/m 9,7 km/h (2 Bft) 97,87 %
07.01.2023 03:02 9,9 C 9,4 C 6,7 C 94 % 1017,1 hPa 0,0 l/m 0 min 0 min 0 W/m 6,4 km/h (2 Bft) 95,83 %
07.01.2023 03:04 9,9 C 9,4 C 6,7 C 94 % 1017,1 hPa 0,0 l/m 0 min 0 min 0 W/m 6,4 km/h (2 Bft) 97,87 %
07.01.2023 03:06 9,9 C 9,4 C 6,7 C 94 % 1017,1 hPa 0,0 l/m 0 min 0 min 0 W/m 6,4 km/h (2 Bft) 97,87 %
07.01.2023 03:08 9,9 C 9,4 C 6,7 C 94 % 1017,0 hPa 0,0 l/m 0 min 0 min 0 W/m 6,4 km/h (2 Bft) 97,87 %
07.01.2023 03:10 10,0 C 9,4 C 6,7 C 94 % 1017,0 hPa 0,0 l/m 0 min 0 min 0 W/m 12,9 km/h (3 Bft) 97,87 %
07.01.2023 03:12 10,0 C 9,4 C 6,7 C 94 % 1017,0 hPa 0,0 l/m 0 min 0 min 0 W/m 6,4 km/h (2 Bft) 97,87 %
07.01.2023 03:14 10,0 C 9,4 C 6,7 C 94 % 1017,0 hPa 0,0 l/m 0 min 0 min 0 W/m 6,4 km/h (2 Bft) 97,87 %
07.01.2023 03:16 10,1 C 9,4 C 6,7 C 94 % 1017,0 hPa 0,0 l/m 0 min 0 min 0 W/m 6,4 km/h (2 Bft) 100,00 %
07.01.2023 03:18 10,1 C 9,4 C 6,7 C 94 % 1017,0 hPa 0,0 l/m 0 min 0 min 0 W/m 3,2 km/h (1 Bft) 97,87 %
07.01.2023 03:20 10,1 C 9,4 C 6,7 C 94 % 1016,9 hPa 0,0 l/m 0 min 0 min 0 W/m 12,9 km/h (3 Bft) 97,87 %
07.01.2023 03:22 10,1 C 9,4 C 6,7 C 94 % 1017,0 hPa 0,0 l/m 0 min 0 min 0 W/m 12,9 km/h (3 Bft) 93,62 %
07.01.2023 03:24 10,1 C 9,4 C 6,7 C 94 % 1017,0 hPa 0,0 l/m 0 min 0 min 0 W/m 6,4 km/h (2 Bft) 95,74 %
07.01.2023 03:26 10,1 C 9,4 C 6,7 C 94 % 1016,9 hPa 0,0 l/m 0 min 0 min 0 W/m 9,7 km/h (2 Bft) 91,49 %
07.01.2023 03:28 10,1 C 9,4 C 6,7 C 94 % 1016,9 hPa 0,0 l/m 0 min 0 min 0 W/m 12,9 km/h (3 Bft) 93,62 %
07.01.2023 03:30 10,1 C 9,4 C 6,7 C 93 % 1016,8 hPa 0,0 l/m 0 min 0 min 0 W/m 9,7 km/h (2 Bft) 95,65 %
07.01.2023 03:32 10,2 C 9,4 C 6,7 C 93 % 1016,9 hPa 0,0 l/m 0 min 0 min 0 W/m 12,9 km/h (3 Bft) 95,74 %
07.01.2023 03:34 10,2 C 9,4 C 6,7 C 93 % 1016,9 hPa 0,0 l/m 0 min 0 min 0 W/m 9,7 km/h (2 Bft) 97,87 %
07.01.2023 03:36 10,2 C 9,4 C 6,7 C 93 % 1016,9 hPa 0,0 l/m 0 min 0 min 0 W/m 12,9 km/h (3 Bft) 97,87 %
07.01.2023 03:38 10,2 C 10,0 C 6,7 C 93 % 1016,9 hPa 0,0 l/m 0 min 0 min 0 W/m 16,1 km/h (3 Bft) 95,74 %
07.01.2023 03:40 10,2 C 10,0 C 6,7 C 93 % 1016,9 hPa 0,0 l/m 0 min 0 min 0 W/m 12,9 km/h (3 Bft) 97,87 %
07.01.2023 03:42 10,3 C 10,0 C 6,7 C 93 % 1016,8 hPa 0,0 l/m 0 min 0 min 0 W/m 16,1 km/h (3 Bft) 97,87 %
07.01.2023 03:44 10,3 C 10,0 C 6,7 C 93 % 1016,8 hPa 0,0 l/m 0 min 0 min 0 W/m 12,9 km/h (3 Bft) 97,83 %
07.01.2023 03:46 10,3 C 10,0 C 6,7 C 93 % 1016,8 hPa 0,0 l/m 0 min 0 min 0 W/m 9,7 km/h (2 Bft) 97,87 %
07.01.2023 03:48 10,3 C 10,0 C 6,7 C 93 % 1016,8 hPa 0,0 l/m 0 min 0 min 0 W/m 12,9 km/h (3 Bft) 97,87 %
07.01.2023 03:50 10,3 C 10,0 C 6,7 C 93 % 1016,8 hPa 0,0 l/m 0 min 0 min 0 W/m 12,9 km/h (3 Bft) 97,87 %
07.01.2023 03:52 10,3 C 10,0 C 6,7 C 93 % 1016,8 hPa 0,0 l/m 0 min 0 min 0 W/m 16,1 km/h (3 Bft) 97,87 %
07.01.2023 03:54 10,3 C 10,0 C 7,2 C 93 % 1016,7 hPa 0,0 l/m 0 min 0 min 0 W/m 12,9 km/h (3 Bft) 97,87 %
07.01.2023 03:56 10,4 C 10,0 C 7,2 C 93 % 1016,7 hPa 0,0 l/m 0 min 0 min 0 W/m 19,3 km/h (3 Bft) 97,87 %
07.01.2023 03:58 10,4 C 10,0 C 7,2 C 93 % 1016,7 hPa 0,0 l/m 0 min 0 min 0 W/m 12,9 km/h (3 Bft) 97,83 %
07.01.2023 04:00 10,4 C 10,0 C 7,2 C 93 % 1016,7 hPa 0,0 l/m 0 min 0 min 0 W/m 12,9 km/h (3 Bft) 95,74 %
07.01.2023 04:02 10,4 C 10,0 C 7,2 C 93 % 1016,7 hPa 0,0 l/m 0 min 0 min 0 W/m 12,9 km/h (3 Bft) 93,62 %
07.01.2023 04:04 10,4 C 10,0 C 7,2 C 93 % 1016,7 hPa 0,0 l/m 0 min 0 min 0 W/m 12,9 km/h (3 Bft) 97,87 %
07.01.2023 04:06 10,4 C 10,0 C 6,7 C 92 % 1016,7 hPa 0,0 l/m 0 min 0 min 0 W/m 12,9 km/h (3 Bft) 97,87 %
07.01.2023 04:08 10,4 C 10,0 C 6,7 C 92 % 1016,7 hPa 0,0 l/m 0 min 0 min 0 W/m 6,4 km/h (2 Bft) 97,87 %
07.01.2023 04:10 10,4 C 9,4 C 6,7 C 92 % 1016,6 hPa 0,0 l/m 0 min 0 min 0 W/m 6,4 km/h (2 Bft) 97,87 %
07.01.2023 04:12 10,4 C 9,4 C 6,7 C 92 % 1016,6 hPa 0,0 l/m 0 min 0 min 0 W/m 12,9 km/h (3 Bft) 100,00 %
07.01.2023 04:14 10,4 C 9,4 C 6,7 C 92 % 1016,6 hPa 0,0 l/m 0 min 0 min 0 W/m 6,4 km/h (2 Bft) 97,83 %
07.01.2023 04:16 10,4 C 9,4 C 6,7 C 92 % 1016,6 hPa 0,0 l/m 0 min 0 min 0 W/m 9,7 km/h (2 Bft) 100,00 %
07.01.2023 04:18 10,4 C 9,4 C 6,7 C 92 % 1016,6 hPa 0,0 l/m 0 min 0 min 0 W/m 12,9 km/h (3 Bft) 95,74 %
07.01.2023 04:20 10,4 C 9,4 C 6,7 C 92 % 1016,6 hPa 0,0 l/m 0 min 0 min 0 W/m 6,4 km/h (2 Bft) 100,00 %
07.01.2023 04:22 10,4 C 9,4 C 6,7 C 92 % 1016,5 hPa 0,0 l/m 0 min 0 min 0 W/m 3,2 km/h (1 Bft) 100,00 %
07.01.2023 04:24 10,3 C 9,4 C 6,7 C 92 % 1016,5 hPa 0,0 l/m 0 min 0 min 0 W/m 12,9 km/h (3 Bft) 100,00 %
07.01.2023 04:26 10,3 C 9,4 C 6,7 C 92 % 1016,5 hPa 0,0 l/m 0 min 0 min 0 W/m 6,4 km/h (2 Bft) 100,00 %
07.01.2023 04:28 10,3 C 9,4 C 6,7 C 92 % 1016,4 hPa 0,0 l/m 0 min 0 min 0 W/m 3,2 km/h (1 Bft) 97,83 %
07.01.2023 04:30 10,3 C 9,4 C 6,7 C 92 % 1016,4 hPa 0,0 l/m 0 min 0 min 0 W/m 6,4 km/h (2 Bft) 100,00 %
07.01.2023 04:32 10,2 C 9,4 C 6,7 C 92 % 1016,4 hPa 0,0 l/m 0 min 0 min 0 W/m 12,9 km/h (3 Bft) 100,00 %
07.01.2023 04:34 10,2 C 9,4 C 6,7 C 92 % 1016,4 hPa 0,0 l/m 0 min 0 min 0 W/m 6,4 km/h (2 Bft) 100,00 %
07.01.2023 04:36 10,2 C 8,9 C 6,1 C 91 % 1016,4 hPa 0,0 l/m 0 min 0 min 0 W/m 12,9 km/h (3 Bft) 100,00 %
07.01.2023 04:38 10,2 C 8,9 C 6,1 C 91 % 1016,4 hPa 0,0 l/m 0 min 0 min 0 W/m 9,7 km/h (2 Bft) 100,00 %
07.01.2023 04:40 10,1 C 8,9 C 6,1 C 91 % 1016,4 hPa 0,0 l/m 0 min 0 min 0 W/m 6,4 km/h (2 Bft) 97,83 %
07.01.2023 04:42 10,1 C 8,9 C 6,1 C 91 % 1016,4 hPa 0,0 l/m 0 min 0 min 0 W/m 6,4 km/h (2 Bft) 100,00 %
07.01.2023 04:44 10,1 C 8,9 C 6,1 C 91 % 1016,4 hPa 0,0 l/m 0 min 0 min 0 W/m 9,7 km/h (2 Bft) 97,87 %
07.01.2023 04:46 10,1 C 8,9 C 6,1 C 91 % 1016,4 hPa 0,0 l/m 0 min 0 min 0 W/m 6,4 km/h (2 Bft) 97,87 %
07.01.2023 04:48 10,0 C 8,9 C 6,1 C 91 % 1016,4 hPa 0,0 l/m 0 min 0 min 0 W/m 9,7 km/h (2 Bft) 97,87 %
07.01.2023 04:50 10,0 C 8,9 C 6,1 C 92 % 1016,4 hPa 0,0 l/m 0 min 0 min 0 W/m 6,4 km/h (2 Bft) 97,87 %
07.01.2023 04:52 9,9 C 8,9 C 6,1 C 92 % 1016,4 hPa 0,0 l/m 0 min 0 min 0 W/m 12,9 km/h (3 Bft) 97,87 %
07.01.2023 04:54 9,9 C 8,9 C 6,1 C 92 % 1016,4 hPa 0,0 l/m 0 min 0 min 0 W/m 12,9 km/h (3 Bft) 97,83 %
07.01.2023 04:56 9,9 C 8,9 C 6,1 C 92 % 1016,4 hPa 0,0 l/m 0 min 0 min 0 W/m 6,4 km/h (2 Bft) 95,74 %
07.01.2023 04:58 9,8 C 8,9 C 6,1 C 91 % 1016,3 hPa 0,0 l/m 0 min 0 min 0 W/m 6,4 km/h (2 Bft) 95,74 %
07.01.2023 05:00 9,8 C 8,9 C 6,1 C 92 % 1016,3 hPa 0,0 l/m 0 min 0 min 0 W/m 6,4 km/h (2 Bft) 95,74 %
07.01.2023 05:02 9,8 C 8,9 C 6,1 C 92 % 1016,3 hPa 0,0 l/m 0 min 0 min 0 W/m 12,9 km/h (3 Bft) 95,74 %
07.01.2023 05:04 9,8 C 8,3 C 6,1 C 92 % 1016,3 hPa 0,0 l/m 0 min 0 min 0 W/m 6,4 km/h (2 Bft) 93,62 %
07.01.2023 05:06 9,7 C 8,3 C 6,1 C 92 % 1016,2 hPa 0,0 l/m 0 min 0 min 0 W/m 6,4 km/h (2 Bft) 95,74 %
07.01.2023 05:08 9,7 C 8,3 C 6,1 C 92 % 1016,2 hPa 0,0 l/m 0 min 0 min 0 W/m 12,9 km/h (3 Bft) 95,65 %
07.01.2023 05:10 9,7 C 8,3 C 6,1 C 92 % 1016,2 hPa 0,0 l/m 0 min 0 min 0 W/m 12,9 km/h (3 Bft) 93,62 %
07.01.2023 05:12 9,7 C 8,3 C 5,6 C 92 % 1016,2 hPa 0,0 l/m 0 min 0 min 0 W/m 6,4 km/h (2 Bft) 95,74 %
07.01.2023 05:14 9,6 C 8,3 C 5,6 C 92 % 1016,1 hPa 0,0 l/m 0 min 0 min 0 W/m 6,4 km/h (2 Bft) 95,74 %
07.01.2023 05:16 9,6 C 8,3 C 5,6 C 92 % 1016,1 hPa 0,0 l/m 0 min 0 min 0 W/m 3,2 km/h (1 Bft) 93,62 %
07.01.2023 05:18 9,6 C 8,3 C 5,6 C 92 % 1016,1 hPa 0,0 l/m 0 min 0 min 0 W/m 0,0 km/h (0 Bft) 93,62 %
07.01.2023 05:20 9,6 C 8,3 C 5,6 C 92 % 1016,1 hPa 0,0 l/m 0 min 0 min 0 W/m 0,0 km/h (0 Bft) 91,49 %
07.01.2023 05:22 9,5 C 8,3 C 5,6 C 92 % 1016,0 hPa 0,0 l/m 0 min 0 min 0 W/m 6,4 km/h (2 Bft) 93,48 %
07.01.2023 05:24 9,4 C 8,3 C 5,6 C 92 % 1016,0 hPa 0,0 l/m 0 min 0 min 0 W/m 6,4 km/h (2 Bft) 95,74 %
07.01.2023 05:26 9,4 C 8,3 C 5,6 C 92 % 1016,0 hPa 0,0 l/m 0 min 0 min 0 W/m 3,2 km/h (1 Bft) 95,74 %
07.01.2023 05:28 9,4 C 8,3 C 5,6 C 92 % 1015,9 hPa 0,0 l/m 0 min 0 min 0 W/m 6,4 km/h (2 Bft) 97,87 %
07.01.2023 05:30 9,4 C 8,3 C 5,6 C 92 % 1016,0 hPa 0,0 l/m 0 min 0 min 0 W/m 6,4 km/h (2 Bft) 97,87 %
07.01.2023 05:32 9,3 C 7,8 C 5,6 C 92 % 1015,9 hPa 0,0 l/m 0 min 0 min 0 W/m 6,4 km/h (2 Bft) 97,87 %
07.01.2023 05:34 9,3 C 7,8 C 5,6 C 92 % 1015,9 hPa 0,0 l/m 0 min 0 min 0 W/m 6,4 km/h (2 Bft) 100,00 %
07.01.2023 05:36 9,3 C 7,8 C 5,6 C 92 % 1015,9 hPa 0,0 l/m 0 min 0 min 0 W/m 9,7 km/h (2 Bft) 100,00 %
07.01.2023 05:38 9,2 C 7,8 C 5,6 C 92 % 1015,8 hPa 0,0 l/m 0 min 0 min 0 W/m 6,4 km/h (2 Bft) 97,87 %
07.01.2023 05:40 9,2 C 7,8 C 5,6 C 92 % 1015,8 hPa 0,0 l/m 0 min 0 min 0 W/m 6,4 km/h (2 Bft) 100,00 %
07.01.2023 05:42 9,1 C 7,8 C 5,6 C 92 % 1015,7 hPa 0,0 l/m 0 min 0 min 0 W/m 12,9 km/h (3 Bft) 100,00 %
07.01.2023 05:44 9,1 C 7,8 C 5,0 C 92 % 1015,8 hPa 0,0 l/m 0 min 0 min 0 W/m 12,9 km/h (3 Bft) 100,00 %
07.01.2023 05:46 9,1 C 7,8 C 5,0 C 92 % 1015,7 hPa 0,0 l/m 0 min 0 min 0 W/m 6,4 km/h (2 Bft) 97,87 %
07.01.2023 05:48 9,0 C 7,8 C 5,0 C 93 % 1015,7 hPa 0,0 l/m 0 min 0 min 0 W/m 6,4 km/h (2 Bft) 100,00 %
07.01.2023 05:50 8,9 C 7,8 C 5,0 C 93 % 1015,7 hPa 0,0 l/m 0 min 0 min 0 W/m 6,4 km/h (2 Bft) 100,00 %
07.01.2023 05:52 8,9 C 7,8 C 5,0 C 93 % 1015,6 hPa 0,0 l/m 0 min 0 min 0 W/m 6,4 km/h (2 Bft) 95,74 %
07.01.2023 05:54 8,9 C 7,8 C 5,0 C 93 % 1015,6 hPa 0,0 l/m 0 min 0 min 0 W/m 9,7 km/h (2 Bft) 100,00 %
07.01.2023 05:56 8,9 C 7,8 C 5,0 C 93 % 1015,6 hPa 0,0 l/m 0 min 0 min 0 W/m 6,4 km/h (2 Bft) 100,00 %
07.01.2023 05:58 8,8 C 7,8 C 5,0 C 93 % 1015,5 hPa 0,0 l/m 0 min 0 min 0 W/m 3,2 km/h (1 Bft) 100,00 %
07.01.2023 06:00 8,8 C 7,8 C 5,0 C 93 % 1015,6 hPa 0,0 l/m 0 min 0 min 0 W/m 3,2 km/h (1 Bft) 97,87 %
07.01.2023 06:02 8,8 C 7,8 C 5,0 C 93 % 1015,5 hPa 0,0 l/m 0 min 0 min 0 W/m 6,4 km/h (2 Bft) 97,83 %
07.01.2023 06:04 8,8 C 7,8 C 5,0 C 93 % 1015,5 hPa 0,0 l/m 0 min 0 min 0 W/m 3,2 km/h (1 Bft) 97,87 %
07.01.2023 06:08 8,8 C 7,8 C 5,0 C 93 % 1015,5 hPa 0,0 l/m 0 min 0 min 0 W/m 6,4 km/h (2 Bft) 100,00 %
07.01.2023 06:10 8,7 C 7,8 C 5,0 C 93 % 1015,5 hPa 0,0 l/m 0 min 0 min 0 W/m 3,2 km/h (1 Bft) 100,00 %
07.01.2023 06:12 8,7 C 7,8 C 5,0 C 93 % 1015,4 hPa 0,0 l/m 0 min 0 min 0 W/m 6,4 km/h (2 Bft) 100,00 %
07.01.2023 06:14 8,7 C 7,8 C 5,0 C 93 % 1015,5 hPa 0,0 l/m 0 min 0 min 0 W/m 3,2 km/h (1 Bft) 100,00 %
07.01.2023 06:16 8,7 C 7,2 C 5,0 C 93 % 1015,5 hPa 0,0 l/m 0 min 0 min 0 W/m 3,2 km/h (1 Bft) 100,00 %
07.01.2023 06:18 8,6 C 7,2 C 5,0 C 93 % 1015,4 hPa 0,0 l/m 0 min 0 min 0 W/m 3,2 km/h (1 Bft) 97,83 %
07.01.2023 06:20 8,6 C 7,2 C 5,0 C 93 % 1015,4 hPa 0,0 l/m 0 min 0 min 0 W/m 0,0 km/h (0 Bft) 97,87 %
07.01.2023 06:22 8,6 C 7,2 C 5,0 C 93 % 1015,3 hPa 0,0 l/m 0 min 0 min 0 W/m 0,0 km/h (0 Bft) 95,74 %
07.01.2023 06:24 8,6 C 7,2 C 5,0 C 93 % 1015,3 hPa 0,0 l/m 0 min 0 min 0 W/m 0,0 km/h (0 Bft) 97,87 %
07.01.2023 06:26 8,6 C 7,2 C 5,0 C 93 % 1015,3 hPa 0,0 l/m 0 min 0 min 0 W/m 3,2 km/h (1 Bft) 97,87 %
07.01.2023 06:28 8,5 C 7,2 C 5,0 C 93 % 1015,3 hPa 0,0 l/m 0 min 0 min 0 W/m 3,2 km/h (1 Bft) 95,74 %
07.01.2023 06:30 8,5 C 7,2 C 5,0 C 93 % 1015,2 hPa 0,0 l/m 0 min 0 min 0 W/m 3,2 km/h (1 Bft) 97,87 %
07.01.2023 06:32 8,4 C 7,2 C 4,4 C 93 % 1015,3 hPa 0,0 l/m 0 min 0 min 0 W/m 6,4 km/h (2 Bft) 97,83 %
07.01.2023 06:34 8,4 C 7,2 C 4,4 C 93 % 1015,2 hPa 0,0 l/m 0 min 0 min 0 W/m 3,2 km/h (1 Bft) 97,87 %
07.01.2023 06:36 8,4 C 7,2 C 4,4 C 93 % 1015,2 hPa 0,0 l/m 0 min 0 min 0 W/m 0,0 km/h (0 Bft) 95,74 %
07.01.2023 06:38 8,3 C 6,7 C 4,4 C 93 % 1015,2 hPa 0,0 l/m 0 min 0 min 0 W/m 0,0 km/h (0 Bft) 95,74 %
07.01.2023 06:40 8,3 C 6,7 C 4,4 C 93 % 1015,1 hPa 0,0 l/m 0 min 0 min 0 W/m 3,2 km/h (1 Bft) 97,87 %
07.01.2023 06:42 8,3 C 6,7 C 4,4 C 93 % 1015,2 hPa 0,0 l/m 0 min 0 min 0 W/m 6,4 km/h (2 Bft) 97,87 %
07.01.2023 06:44 8,2 C 6,7 C 4,4 C 93 % 1015,1 hPa 0,0 l/m 0 min 0 min 0 W/m 6,4 km/h (2 Bft) 97,87 %
07.01.2023 06:46 8,2 C 6,7 C 4,4 C 93 % 1015,1 hPa 0,0 l/m 0 min 0 min 0 W/m 3,2 km/h (1 Bft) 93,48 %
07.01.2023 06:48 8,2 C 6,7 C 4,4 C 93 % 1015,1 hPa 0,0 l/m 0 min 0 min 0 W/m 3,2 km/h (1 Bft) 95,74 %
07.01.2023 06:50 8,1 C 7,2 C 4,4 C 93 % 1015,1 hPa 0,0 l/m 0 min 0 min 0 W/m 6,4 km/h (2 Bft) 95,74 %
07.01.2023 06:52 8,1 C 7,2 C 4,4 C 94 % 1015,1 hPa 0,0 l/m 0 min 0 min 0 W/m 6,4 km/h (2 Bft) 93,62 %
07.01.2023 06:54 8,1 C 7,2 C 4,4 C 94 % 1015,1 hPa 0,0 l/m 0 min 0 min 0 W/m 6,4 km/h (2 Bft) 91,49 %
07.01.2023 06:56 8,1 C 7,2 C 5,0 C 94 % 1015,1 hPa 0,0 l/m 0 min 0 min 0 W/m 6,4 km/h (2 Bft) 93,62 %
07.01.2023 06:58 8,1 C 7,2 C 5,0 C 94 % 1015,1 hPa 0,0 l/m 0 min 0 min 0 W/m 6,4 km/h (2 Bft) 95,74 %
07.01.2023 07:00 8,1 C 7,2 C 5,0 C 94 % 1015,1 hPa 0,0 l/m 0 min 0 min 0 W/m 6,4 km/h (2 Bft) 95,65 %
07.01.2023 07:02 8,1 C 7,2 C 5,0 C 94 % 1015,1 hPa 0,0 l/m 0 min 0 min 0 W/m 3,2 km/h (1 Bft) 93,62 %
07.01.2023 07:04 8,1 C 7,8 C 5,0 C 94 % 1015,1 hPa 0,0 l/m 0 min 0 min 0 W/m 6,4 km/h (2 Bft) 95,74 %
07.01.2023 07:06 8,1 C 7,8 C 5,0 C 94 % 1015,1 hPa 0,0 l/m 0 min 0 min 0 W/m 6,4 km/h (2 Bft) 93,62 %
07.01.2023 07:08 8,2 C 7,8 C 5,0 C 94 % 1015,1 hPa 0,0 l/m 0 min 0 min 0 W/m 6,4 km/h (2 Bft) 95,74 %
07.01.2023 07:10 8,2 C 7,8 C 5,0 C 94 % 1015,1 hPa 0,0 l/m 0 min 0 min 0 W/m 6,4 km/h (2 Bft) 95,74 %
07.01.2023 07:12 8,2 C 7,8 C 5,0 C 94 % 1015,1 hPa 0,0 l/m 0 min 0 min 0 W/m 3,2 km/h (1 Bft) 97,87 %
07.01.2023 07:14 8,2 C 7,8 C 5,0 C 94 % 1015,0 hPa 0,0 l/m 0 min 0 min 0 W/m 3,2 km/h (1 Bft) 97,83 %
07.01.2023 07:16 8,2 C 7,8 C 5,0 C 94 % 1015,0 hPa 0,0 l/m 0 min 0 min 0 W/m 3,2 km/h (1 Bft) 95,74 %
07.01.2023 07:18 8,2 C 7,8 C 5,0 C 94 % 1015,0 hPa 0,0 l/m 0 min 0 min 0 W/m 3,2 km/h (1 Bft) 91,49 %
07.01.2023 07:20 8,2 C 7,8 C 5,0 C 94 % 1015,0 hPa 0,0 l/m 0 min 0 min 0 W/m 3,2 km/h (1 Bft) 97,87 %
07.01.2023 07:22 8,2 C 7,8 C 5,0 C 94 % 1015,0 hPa 0,0 l/m 0 min 0 min 0 W/m 3,2 km/h (1 Bft) 97,87 %
07.01.2023 07:24 8,3 C 7,8 C 5,0 C 94 % 1014,9 hPa 0,0 l/m 0 min 0 min 0 W/m 6,4 km/h (2 Bft) 97,87 %
07.01.2023 07:26 8,3 C 7,8 C 5,0 C 94 % 1014,9 hPa 0,0 l/m 0 min 0 min 0 W/m 3,2 km/h (1 Bft) 95,74 %
07.01.2023 07:28 8,3 C 7,8 C 5,0 C 94 % 1014,9 hPa 0,0 l/m 0 min 0 min 0 W/m 6,4 km/h (2 Bft) 97,83 %
07.01.2023 07:30 8,3 C 7,8 C 5,0 C 94 % 1014,9 hPa 0,0 l/m 0 min 0 min 0 W/m 6,4 km/h (2 Bft) 97,87 %
07.01.2023 07:32 8,3 C 7,8 C 5,0 C 94 % 1014,9 hPa 0,0 l/m 0 min 0 min 0 W/m 6,4 km/h (2 Bft) 95,74 %
07.01.2023 07:34 8,3 C 7,8 C 5,6 C 94 % 1014,9 hPa 0,0 l/m 0 min 0 min 0 W/m 3,2 km/h (1 Bft) 97,87 %
07.01.2023 07:36 8,3 C 7,8 C 5,6 C 94 % 1014,9 hPa 0,0 l/m 0 min 0 min 0 W/m 3,2 km/h (1 Bft) 97,87 %
07.01.2023 07:38 8,3 C 7,8 C 5,6 C 94 % 1014,9 hPa 0,0 l/m 0 min 0 min 0 W/m 3,2 km/h (1 Bft) 97,87 %
07.01.2023 07:40 8,3 C 7,8 C 5,6 C 94 % 1014,9 hPa 0,0 l/m 0 min 0 min 0 W/m 6,4 km/h (2 Bft) 95,74 %
07.01.2023 07:42 8,3 C 7,8 C 5,6 C 94 % 1014,8 hPa 0,0 l/m 0 min 0 min 0 W/m 3,2 km/h (1 Bft) 97,87 %
07.01.2023 07:44 8,3 C 7,8 C 5,6 C 94 % 1014,8 hPa 0,0 l/m 0 min 0 min 0 W/m 3,2 km/h (1 Bft) 97,14 %
07.01.2023 07:46 8,3 C 7,8 C 5,6 C 94 % 1014,7 hPa 0,0 l/m 0 min 0 min 0 W/m 3,2 km/h (1 Bft) 97,87 %
07.01.2023 07:48 8,4 C 7,8 C 5,6 C 94 % 1014,8 hPa 0,0 l/m 0 min 0 min 0 W/m 3,2 km/h (1 Bft) 96,36 %
07.01.2023 07:50 8,4 C 7,8 C 5,6 C 94 % 1014,7 hPa 0,0 l/m 0 min 0 min 0 W/m 3,2 km/h (1 Bft) 42,86 %
07.01.2023 07:52 8,4 C 7,8 C 5,6 C 94 % 1014,7 hPa 0,0 l/m 0 min 0 min 0 W/m 6,4 km/h (2 Bft) 97,37 %
07.01.2023 07:54 8,4 C 7,8 C 5,6 C 94 % 1014,8 hPa 0,0 l/m 0 min 0 min 0 W/m 12,9 km/h (3 Bft) 97,87 %
07.01.2023 07:56 8,4 C 8,3 C 5,6 C 94 % 1014,7 hPa 0,0 l/m 0 min 0 min 0 W/m 3,2 km/h (1 Bft) 95,74 %
07.01.2023 07:58 8,4 C 8,3 C 5,6 C 94 % 1014,7 hPa 0,0 l/m 0 min 0 min 0 W/m 3,2 km/h (1 Bft) 97,83 %
07.01.2023 08:00 8,4 C 8,3 C 5,6 C 94 % 1014,7 hPa 0,0 l/m 0 min 0 min 0 W/m 6,4 km/h (2 Bft) 95,74 %
07.01.2023 08:02 8,5 C 8,3 C 5,6 C 94 % 1014,6 hPa 0,0 l/m 0 min 0 min 0 W/m 6,4 km/h (2 Bft) 97,87 %
07.01.2023 08:04 8,5 C 8,3 C 5,6 C 94 % 1014,6 hPa 0,0 l/m 0 min 0 min 0 W/m 6,4 km/h (2 Bft) 97,87 %
07.01.2023 08:06 8,6 C 8,3 C 5,6 C 94 % 1014,7 hPa 0,0 l/m 0 min 0 min 0 W/m 3,2 km/h (1 Bft) 100,00 %
07.01.2023 08:08 8,6 C 8,3 C 5,6 C 94 % 1014,6 hPa 0,0 l/m 0 min 0 min 0 W/m 3,2 km/h (1 Bft) 100,00 %
07.01.2023 08:10 8,6 C 8,3 C 5,6 C 94 % 1014,6 hPa 0,0 l/m 0 min 0 min 0 W/m 9,7 km/h (2 Bft) 100,00 %
07.01.2023 08:12 8,7 C 8,3 C 5,6 C 94 % 1014,6 hPa 0,0 l/m 0 min 0 min 0 W/m 6,4 km/h (2 Bft) 100,00 %
07.01.2023 08:14 8,7 C 8,3 C 5,6 C 94 % 1014,5 hPa 0,0 l/m 0 min 0 min 0 W/m 6,4 km/h (2 Bft) 100,00 %
07.01.2023 08:16 8,7 C 8,9 C 5,6 C 94 % 1014,5 hPa 0,0 l/m 0 min 0 min 0 W/m 12,9 km/h (3 Bft) 100,00 %
07.01.2023 08:18 8,8 C 8,9 C 6,1 C 94 % 1014,5 hPa 0,0 l/m 0 min 0 min 0 W/m 9,7 km/h (2 Bft) 97,87 %
07.01.2023 08:20 8,8 C 8,9 C 6,1 C 94 % 1014,5 hPa 0,0 l/m 0 min 0 min 0 W/m 9,7 km/h (2 Bft) 100,00 %
07.01.2023 08:22 8,8 C 8,9 C 6,1 C 94 % 1014,5 hPa 0,0 l/m 0 min 0 min 0 W/m 12,9 km/h (3 Bft) 100,00 %
07.01.2023 08:24 8,9 C 8,9 C 6,1 C 94 % 1014,5 hPa 0,0 l/m 0 min 0 min 0 W/m 12,9 km/h (3 Bft) 100,00 %
07.01.2023 08:26 8,9 C 8,9 C 6,1 C 94 % 1014,5 hPa 0,0 l/m 0 min 0 min 0 W/m 12,9 km/h (3 Bft) 100,00 %
07.01.2023 08:28 9,0 C 8,9 C 6,1 C 94 % 1014,5 hPa 0,0 l/m 0 min 0 min 0 W/m 12,9 km/h (3 Bft) 97,87 %
07.01.2023 08:30 9,1 C 8,9 C 6,1 C 94 % 1014,5 hPa 0,0 l/m 0 min 0 min 0 W/m 12,9 km/h (3 Bft) 100,00 %
07.01.2023 08:32 9,1 C 8,9 C 6,1 C 93 % 1014,4 hPa 0,0 l/m 0 min 0 min 0 W/m 12,9 km/h (3 Bft) 100,00 %
07.01.2023 08:34 9,1 C 8,9 C 6,1 C 93 % 1014,4 hPa 0,0 l/m 0 min 0 min 0 W/m 12,9 km/h (3 Bft) 100,00 %
07.01.2023 08:36 9,2 C 8,9 C 6,1 C 93 % 1014,4 hPa 0,0 l/m 0 min 0 min 0 W/m 12,9 km/h (3 Bft) 97,14 %
07.01.2023 08:38 9,2 C 8,9 C 6,1 C 93 % 1014,4 hPa 0,0 l/m 0 min 0 min 0 W/m 12,9 km/h (3 Bft) 97,87 %
07.01.2023 08:40 9,3 C 8,9 C 6,1 C 93 % 1014,5 hPa 0,0 l/m 0 min 0 min 0 W/m 12,9 km/h (3 Bft) 97,87 %
07.01.2023 08:42 9,3 C 8,9 C 6,1 C 93 % 1014,5 hPa 0,0 l/m 0 min 0 min 0 W/m 9,7 km/h (2 Bft) 97,87 %
07.01.2023 08:44 9,3 C 8,9 C 6,1 C 93 % 1014,4 hPa 0,0 l/m 0 min 0 min 0 W/m 12,9 km/h (3 Bft) 95,65 %
07.01.2023 08:46 9,3 C 8,9 C 6,1 C 92 % 1014,4 hPa 0,0 l/m 0 min 0 min 0 W/m 6,4 km/h (2 Bft) 97,87 %
07.01.2023 08:48 9,4 C 8,9 C 6,1 C 92 % 1014,4 hPa 0,0 l/m 0 min 0 min 5 W/m 6,4 km/h (2 Bft) 95,74 %
07.01.2023 08:50 9,4 C 8,9 C 6,1 C 92 % 1014,4 hPa 0,0 l/m 0 min 0 min 5 W/m 9,7 km/h (2 Bft) 97,87 %
07.01.2023 08:52 9,4 C 8,9 C 6,1 C 92 % 1014,3 hPa 0,0 l/m 0 min 0 min 6 W/m 12,9 km/h (3 Bft) 96,43 %
07.01.2023 08:54 9,4 C 8,9 C 6,1 C 92 % 1014,3 hPa 0,0 l/m 0 min 0 min 7 W/m 16,1 km/h (3 Bft) 98,00 %
07.01.2023 08:56 9,4 C 8,9 C 6,1 C 91 % 1014,3 hPa 0,0 l/m 0 min 0 min 8 W/m 9,7 km/h (2 Bft) 97,83 %
07.01.2023 08:58 9,5 C 8,9 C 6,1 C 91 % 1014,3 hPa 0,0 l/m 0 min 0 min 9 W/m 12,9 km/h (3 Bft) 95,74 %
07.01.2023 09:00 9,5 C 8,9 C 6,1 C 91 % 1014,3 hPa 0,0 l/m 0 min 0 min 9 W/m 12,9 km/h (3 Bft) 97,87 %
07.01.2023 09:02 9,5 C 8,9 C 6,1 C 91 % 1014,3 hPa 0,0 l/m 0 min 0 min 9 W/m 12,9 km/h (3 Bft) 97,87 %
07.01.2023 09:04 9,5 C 8,9 C 6,1 C 91 % 1014,3 hPa 0,0 l/m 0 min 0 min 9 W/m 9,7 km/h (2 Bft) 97,87 %
07.01.2023 09:06 9,6 C 8,9 C 6,1 C 91 % 1014,2 hPa 0,0 l/m 0 min 0 min 9 W/m 16,1 km/h (3 Bft) 95,74 %
07.01.2023 09:08 9,6 C 8,9 C 6,1 C 91 % 1014,2 hPa 0,0 l/m 0 min 0 min 8 W/m 19,3 km/h (3 Bft) 97,87 %
07.01.2023 09:10 9,6 C 8,9 C 6,1 C 91 % 1014,2 hPa 0,0 l/m 0 min 0 min 6 W/m 12,9 km/h (3 Bft) 97,87 %
07.01.2023 09:12 9,6 C 8,9 C 6,1 C 90 % 1014,2 hPa 0,0 l/m 0 min 0 min 5 W/m 19,3 km/h (3 Bft) 97,83 %
07.01.2023 09:14 9,6 C 8,9 C 6,1 C 90 % 1014,2 hPa 0,0 l/m 0 min 0 min 5 W/m 12,9 km/h (3 Bft) 100,00 %
07.01.2023 09:16 9,6 C 8,9 C 6,1 C 90 % 1014,2 hPa 0,0 l/m 0 min 0 min 5 W/m 12,9 km/h (3 Bft) 100,00 %
07.01.2023 09:18 9,6 C 9,4 C 6,1 C 90 % 1014,2 hPa 0,0 l/m 0 min 0 min 6 W/m 22,5 km/h (4 Bft) 100,00 %
07.01.2023 09:20 9,6 C 9,4 C 6,1 C 90 % 1014,2 hPa 0,0 l/m 0 min 0 min 7 W/m 12,9 km/h (3 Bft) 95,74 %
07.01.2023 09:22 9,6 C 9,4 C 6,1 C 90 % 1014,2 hPa 0,0 l/m 0 min 0 min 7 W/m 16,1 km/h (3 Bft) 97,87 %
07.01.2023 09:24 9,6 C 9,4 C 6,1 C 90 % 1014,2 hPa 0,0 l/m 0 min 0 min 7 W/m 16,1 km/h (3 Bft) 97,87 %
07.01.2023 09:26 9,7 C 9,4 C 6,1 C 89 % 1014,2 hPa 0,0 l/m 0 min 0 min 7 W/m 9,7 km/h (2 Bft) 97,83 %
07.01.2023 09:28 9,7 C 9,4 C 6,1 C 89 % 1014,1 hPa 0,0 l/m 0 min 0 min 7 W/m 12,9 km/h (3 Bft) 95,74 %
07.01.2023 09:30 9,7 C 9,4 C 6,1 C 89 % 1014,1 hPa 0,0 l/m 0 min 0 min 7 W/m 6,4 km/h (2 Bft) 93,62 %
07.01.2023 09:32 9,7 C 9,4 C 6,1 C 89 % 1014,1 hPa 0,0 l/m 0 min 0 min 7 W/m 9,7 km/h (2 Bft) 95,74 %
07.01.2023 09:34 9,7 C 9,4 C 6,1 C 89 % 1014,1 hPa 0,0 l/m 0 min 0 min 7 W/m 12,9 km/h (3 Bft) 94,74 %
07.01.2023 09:36 9,7 C 9,4 C 6,1 C 89 % 1014,1 hPa 0,0 l/m 0 min 0 min 9 W/m 12,9 km/h (3 Bft) 97,87 %
07.01.2023 09:38 9,7 C 9,4 C 6,1 C 89 % 1014,0 hPa 0,0 l/m 0 min 0 min 9 W/m 12,9 km/h (3 Bft) 93,62 %
07.01.2023 09:40 9,7 C 9,4 C 6,1 C 89 % 1014,0 hPa 0,0 l/m 0 min 0 min 11 W/m 22,5 km/h (4 Bft) 95,74 %
07.01.2023 09:42 9,7 C 9,4 C 6,1 C 89 % 1014,0 hPa 0,0 l/m 0 min 0 min 12 W/m 6,4 km/h (2 Bft) 95,65 %
07.01.2023 09:44 9,7 C 9,4 C 6,1 C 88 % 1013,9 hPa 0,0 l/m 0 min 0 min 13 W/m 9,7 km/h (2 Bft) 89,36 %
07.01.2023 09:46 9,7 C 9,4 C 6,1 C 88 % 1013,9 hPa 0,0 l/m 0 min 0 min 14 W/m 9,7 km/h (2 Bft) 97,87 %
07.01.2023 09:48 9,8 C 9,4 C 6,1 C 88 % 1013,9 hPa 0,0 l/m 0 min 0 min 14 W/m 16,1 km/h (3 Bft) 95,74 %
07.01.2023 09:50 9,8 C 9,4 C 6,1 C 88 % 1013,8 hPa 0,0 l/m 0 min 0 min 16 W/m 12,9 km/h (3 Bft) 95,74 %
07.01.2023 09:52 9,8 C 9,4 C 6,7 C 88 % 1013,8 hPa 0,0 l/m 0 min 0 min 16 W/m 6,4 km/h (2 Bft) 94,34 %
07.01.2023 09:54 9,8 C 9,4 C 6,1 C 88 % 1013,7 hPa 0,0 l/m 0 min 0 min 18 W/m 9,7 km/h (2 Bft) 95,65 %
07.01.2023 09:56 9,8 C 9,4 C 6,1 C 88 % 1013,7 hPa 0,0 l/m 0 min 0 min 19 W/m 6,4 km/h (2 Bft) 95,74 %
07.01.2023 09:58 9,8 C 9,4 C 6,7 C 88 % 1013,7 hPa 0,0 l/m 0 min 0 min 18 W/m 12,9 km/h (3 Bft) 95,74 %
07.01.2023 10:00 9,8 C 9,4 C 6,7 C 88 % 1013,7 hPa 0,0 l/m 0 min 0 min 20 W/m 16,1 km/h (3 Bft) 95,74 %
07.01.2023 10:02 9,8 C 9,4 C 6,7 C 87 % 1013,7 hPa 0,0 l/m 0 min 0 min 21 W/m 12,9 km/h (3 Bft) 95,74 %
07.01.2023 10:04 9,8 C 9,4 C 6,7 C 87 % 1013,7 hPa 0,0 l/m 0 min 0 min 23 W/m 16,1 km/h (3 Bft) 95,12 %
07.01.2023 10:06 9,9 C 9,4 C 6,7 C 87 % 1013,7 hPa 0,0 l/m 0 min 0 min 25 W/m 12,9 km/h (3 Bft) 94,34 %
07.01.2023 10:08 9,9 C 9,4 C 6,7 C 87 % 1013,6 hPa 0,0 l/m 0 min 0 min 30 W/m 12,9 km/h (3 Bft) 95,65 %
07.01.2023 10:10 9,9 C 9,4 C 6,7 C 87 % 1013,6 hPa 0,0 l/m 0 min 0 min 35 W/m 12,9 km/h (3 Bft) 97,87 %
07.01.2023 10:12 9,9 C 9,4 C 6,7 C 87 % 1013,6 hPa 0,0 l/m 0 min 0 min 39 W/m 16,1 km/h (3 Bft) 97,87 %
07.01.2023 10:14 10,0 C 9,4 C 6,7 C 87 % 1013,7 hPa 0,0 l/m 0 min 0 min 41 W/m 16,1 km/h (3 Bft) 91,49 %
07.01.2023 10:16 10,0 C 9,4 C 6,7 C 87 % 1013,6 hPa 0,0 l/m 0 min 0 min 43 W/m 22,5 km/h (4 Bft) 97,87 %
07.01.2023 10:18 10,0 C 9,4 C 6,7 C 87 % 1013,6 hPa 0,0 l/m 0 min 0 min 46 W/m 12,9 km/h (3 Bft) 95,12 %
07.01.2023 10:20 10,1 C 9,4 C 6,7 C 87 % 1013,6 hPa 0,0 l/m 0 min 0 min 53 W/m 12,9 km/h (3 Bft) 97,87 %
07.01.2023 10:22 10,1 C 9,4 C 6,7 C 87 % 1013,6 hPa 0,0 l/m 0 min 0 min 60 W/m 22,5 km/h (4 Bft) 82,98 %
07.01.2023 10:24 10,1 C 9,4 C 6,7 C 88 % 1013,5 hPa 0,0 l/m 0 min 0 min 70 W/m 19,3 km/h (3 Bft) 80,77 %
07.01.2023 10:26 10,1 C 9,4 C 6,7 C 88 % 1013,5 hPa 0,0 l/m 0 min 0 min 77 W/m 16,1 km/h (3 Bft) 97,87 %
07.01.2023 10:28 10,1 C 10,0 C 6,7 C 88 % 1013,6 hPa 0,0 l/m 0 min 0 min 88 W/m 16,1 km/h (3 Bft) 95,74 %
07.01.2023 10:30 10,1 C 10,0 C 6,7 C 88 % 1013,5 hPa 0,0 l/m 2 min 0 min 140 W/m 16,1 km/h (3 Bft) 97,87 %
07.01.2023 10:32 10,2 C 10,0 C 6,7 C 88 % 1013,4 hPa 0,0 l/m 2 min 0 min 207 W/m 19,3 km/h (3 Bft) 95,74 %
07.01.2023 10:34 10,2 C 10,0 C 6,7 C 88 % 1013,5 hPa 0,0 l/m 2 min 0 min 222 W/m 19,3 km/h (3 Bft) 97,87 %
07.01.2023 10:36 10,2 C 10,6 C 6,7 C 89 % 1013,4 hPa 0,0 l/m 2 min 0 min 209 W/m 16,1 km/h (3 Bft) 97,83 %
07.01.2023 10:38 10,3 C 10,6 C 6,7 C 88 % 1013,5 hPa 0,0 l/m 2 min 0 min 188 W/m 19,3 km/h (3 Bft) 97,87 %
07.01.2023 10:40 10,3 C 10,6 C 6,7 C 88 % 1013,5 hPa 0,0 l/m 2 min 0 min 186 W/m 16,1 km/h (3 Bft) 95,74 %
07.01.2023 10:42 10,3 C 10,6 C 6,7 C 88 % 1013,4 hPa 0,0 l/m 2 min 0 min 148 W/m 22,5 km/h (4 Bft) 97,56 %
07.01.2023 10:44 10,4 C 10,0 C 6,7 C 88 % 1013,4 hPa 0,0 l/m 2 min 0 min 133 W/m 16,1 km/h (3 Bft) 95,74 %
07.01.2023 10:46 10,4 C 10,6 C 6,7 C 88 % 1013,4 hPa 0,0 l/m 2 min 0 min 149 W/m 16,1 km/h (3 Bft) 97,87 %
07.01.2023 10:48 10,4 C 10,6 C 6,7 C 88 % 1013,3 hPa 0,0 l/m 2 min 0 min 145 W/m 22,5 km/h (4 Bft) 95,74 %
07.01.2023 10:50 10,4 C 10,6 C 6,7 C 88 % 1013,3 hPa 0,0 l/m 2 min 0 min 184 W/m 16,1 km/h (3 Bft) 95,74 %
07.01.2023 10:52 10,5 C 10,6 C 6,7 C 88 % 1013,3 hPa 0,0 l/m 2 min 0 min 185 W/m 19,3 km/h (3 Bft) 95,74 %
07.01.2023 10:54 10,5 C 10,6 C 6,7 C 88 % 1013,3 hPa 0,0 l/m 2 min 0 min 218 W/m 19,3 km/h (3 Bft) 97,83 %
07.01.2023 10:56 10,6 C 10,6 C 6,7 C 88 % 1013,3 hPa 0,0 l/m 2 min 0 min 230 W/m 12,9 km/h (3 Bft) 93,62 %
07.01.2023 10:58 10,6 C 10,6 C 7,2 C 88 % 1013,3 hPa 0,0 l/m 2 min 0 min 228 W/m 19,3 km/h (3 Bft) 97,87 %
07.01.2023 11:00 10,6 C 10,6 C 7,2 C 87 % 1013,3 hPa 0,0 l/m 2 min 0 min 227 W/m 12,9 km/h (3 Bft) 95,74 %
07.01.2023 11:02 10,7 C 10,6 C 7,2 C 87 % 1013,4 hPa 0,0 l/m 2 min 0 min 233 W/m 35,4 km/h (5 Bft) 97,87 %
07.01.2023 11:04 10,8 C 10,6 C 7,2 C 87 % 1013,3 hPa 0,0 l/m 2 min 0 min 235 W/m 22,5 km/h (4 Bft) 97,87 %
07.01.2023 11:06 10,8 C 10,6 C 7,2 C 86 % 1013,3 hPa 0,0 l/m 2 min 0 min 232 W/m 25,7 km/h (4 Bft) 97,87 %
07.01.2023 11:08 10,8 C 10,6 C 7,2 C 86 % 1013,3 hPa 0,0 l/m 2 min 0 min 225 W/m 22,5 km/h (4 Bft) 97,87 %
07.01.2023 11:10 10,9 C 10,6 C 7,2 C 86 % 1013,2 hPa 0,0 l/m 2 min 0 min 220 W/m 19,3 km/h (3 Bft) 95,65 %
07.01.2023 11:12 10,9 C 10,6 C 7,2 C 86 % 1013,1 hPa 0,0 l/m 2 min 0 min 213 W/m 25,7 km/h (4 Bft) 95,74 %
07.01.2023 11:14 11,0 C 10,6 C 7,2 C 86 % 1013,1 hPa 0,0 l/m 2 min 0 min 193 W/m 25,7 km/h (4 Bft) 80,85 %
07.01.2023 11:16 11,1 C 10,6 C 7,2 C 85 % 1013,1 hPa 0,0 l/m 2 min 0 min 145 W/m 22,5 km/h (4 Bft) 95,74 %
07.01.2023 11:18 11,1 C 11,1 C 7,2 C 85 % 1013,0 hPa 0,0 l/m 2 min 0 min 175 W/m 19,3 km/h (3 Bft) 95,74 %
07.01.2023 11:20 11,1 C 11,1 C 7,2 C 85 % 1013,0 hPa 0,0 l/m 2 min 0 min 213 W/m 16,1 km/h (3 Bft) 97,87 %
07.01.2023 11:22 11,1 C 11,1 C 7,2 C 85 % 1013,0 hPa 0,0 l/m 2 min 0 min 186 W/m 19,3 km/h (3 Bft) 93,62 %
07.01.2023 11:24 11,2 C 11,1 C 7,2 C 85 % 1013,0 hPa 0,0 l/m 2 min 0 min 162 W/m 19,3 km/h (3 Bft) 97,83 %
07.01.2023 11:26 11,2 C 11,1 C 7,2 C 84 % 1012,9 hPa 0,0 l/m 0 min 0 min 133 W/m 19,3 km/h (3 Bft) 97,87 %
07.01.2023 11:28 11,2 C 11,1 C 7,2 C 84 % 1013,0 hPa 0,0 l/m 0 min 0 min 122 W/m 16,1 km/h (3 Bft) 95,74 %
07.01.2023 11:30 11,2 C 11,1 C 7,2 C 84 % 1012,9 hPa 0,0 l/m 0 min 0 min 139 W/m 16,1 km/h (3 Bft) 97,87 %
07.01.2023 11:32 11,2 C 11,1 C 7,2 C 84 % 1012,9 hPa 0,0 l/m 0 min 0 min 141 W/m 16,1 km/h (3 Bft) 100,00 %
07.01.2023 11:34 11,2 C 11,1 C 7,2 C 84 % 1012,9 hPa 0,0 l/m 0 min 0 min 100 W/m 16,1 km/h (3 Bft) 100,00 %
07.01.2023 11:36 11,2 C 11,1 C 7,2 C 84 % 1012,8 hPa 0,0 l/m 0 min 0 min 92 W/m 22,5 km/h (4 Bft) 100,00 %
07.01.2023 11:38 11,2 C 11,1 C 7,2 C 83 % 1012,7 hPa 0,0 l/m 0 min 0 min 97 W/m 25,7 km/h (4 Bft) 95,65 %
07.01.2023 11:40 11,2 C 11,1 C 7,2 C 83 % 1012,7 hPa 0,0 l/m 0 min 0 min 85 W/m 19,3 km/h (3 Bft) 100,00 %
07.01.2023 11:42 11,2 C 11,1 C 7,2 C 83 % 1012,6 hPa 0,0 l/m 0 min 0 min 84 W/m 19,3 km/h (3 Bft) 100,00 %
07.01.2023 11:44 11,2 C 10,6 C 7,2 C 83 % 1012,6 hPa 0,0 l/m 0 min 0 min 79 W/m 19,3 km/h (3 Bft) 100,00 %
07.01.2023 11:46 11,2 C 10,6 C 7,2 C 83 % 1012,5 hPa 0,0 l/m 0 min 0 min 77 W/m 19,3 km/h (3 Bft) 95,74 %
07.01.2023 11:48 11,1 C 10,6 C 7,2 C 83 % 1012,4 hPa 0,0 l/m 0 min 0 min 81 W/m 19,3 km/h (3 Bft) 97,87 %
07.01.2023 11:50 11,1 C 10,6 C 7,2 C 83 % 1012,4 hPa 0,0 l/m 0 min 0 min 88 W/m 22,5 km/h (4 Bft) 95,74 %
07.01.2023 11:52 11,1 C 10,6 C 7,2 C 83 % 1012,3 hPa 0,0 l/m 0 min 0 min 91 W/m 19,3 km/h (3 Bft) 97,87 %
07.01.2023 11:54 11,1 C 10,6 C 7,2 C 83 % 1012,3 hPa 0,0 l/m 0 min 0 min 104 W/m 19,3 km/h (3 Bft) 97,83 %
07.01.2023 11:56 11,0 C 10,6 C 7,2 C 83 % 1012,3 hPa 0,0 l/m 0 min 0 min 95 W/m 19,3 km/h (3 Bft) 97,87 %
07.01.2023 11:58 11,0 C 11,1 C 7,2 C 84 % 1012,2 hPa 0,0 l/m 0 min 0 min 99 W/m 16,1 km/h (3 Bft) 93,62 %
07.01.2023 12:00 11,0 C 11,1 C 7,2 C 84 % 1012,2 hPa 0,0 l/m 0 min 0 min 103 W/m 25,7 km/h (4 Bft) 95,74 %
07.01.2023 12:02 11,0 C 11,1 C 7,2 C 83 % 1012,3 hPa 0,0 l/m 0 min 0 min 107 W/m 22,5 km/h (4 Bft) 97,87 %
07.01.2023 12:04 11,0 C 11,1 C 7,2 C 83 % 1012,2 hPa 0,0 l/m 0 min 0 min 111 W/m 25,7 km/h (4 Bft) 97,87 %
07.01.2023 12:08 10,9 C 11,1 C 7,2 C 83 % 1012,0 hPa 0,0 l/m 0 min 0 min 120 W/m 22,5 km/h (4 Bft) 95,70 %
07.01.2023 12:10 11,0 C 11,1 C 7,2 C 83 % 1012,0 hPa 0,0 l/m 0 min 0 min 130 W/m 22,5 km/h (4 Bft) 97,87 %
07.01.2023 12:12 11,0 C 11,1 C 7,2 C 83 % 1012,0 hPa 0,0 l/m 0 min 0 min 130 W/m 22,5 km/h (4 Bft) 97,87 %
07.01.2023 12:14 11,0 C 11,1 C 7,2 C 83 % 1012,0 hPa 0,0 l/m 0 min 0 min 136 W/m 19,3 km/h (3 Bft) 97,87 %
07.01.2023 12:16 11,0 C 11,1 C 7,2 C 84 % 1011,9 hPa 0,0 l/m 0 min 0 min 132 W/m 16,1 km/h (3 Bft) 95,74 %
07.01.2023 12:18 11,0 C 11,1 C 7,2 C 84 % 1011,8 hPa 0,0 l/m 0 min 0 min 134 W/m 32,2 km/h (5 Bft) 97,87 %
07.01.2023 12:20 11,1 C 11,1 C 7,2 C 83 % 1011,7 hPa 0,0 l/m 0 min 0 min 137 W/m 16,1 km/h (3 Bft) 95,65 %
07.01.2023 12:22 11,1 C 11,1 C 7,2 C 83 % 1011,6 hPa 0,0 l/m 0 min 0 min 129 W/m 16,1 km/h (3 Bft) 95,74 %
07.01.2023 12:24 11,1 C 11,1 C 7,2 C 83 % 1011,5 hPa 0,0 l/m 0 min 0 min 138 W/m 22,5 km/h (4 Bft) 95,74 %
07.01.2023 12:26 11,1 C 11,1 C 7,2 C 83 % 1011,5 hPa 0,0 l/m 0 min 0 min 134 W/m 22,5 km/h (4 Bft) 97,87 %
07.01.2023 12:28 11,1 C 11,1 C 7,2 C 83 % 1011,5 hPa 0,0 l/m 0 min 0 min 131 W/m 22,5 km/h (4 Bft) 97,87 %
07.01.2023 12:30 11,1 C 11,1 C 7,2 C 83 % 1011,4 hPa 0,0 l/m 0 min 0 min 142 W/m 29,0 km/h (5 Bft) 100,00 %
07.01.2023 12:32 11,1 C 11,1 C 7,8 C 83 % 1011,5 hPa 0,0 l/m 2 min 0 min 161 W/m 25,7 km/h (4 Bft) 97,87 %
07.01.2023 12:34 11,2 C 11,1 C 7,8 C 83 % 1011,4 hPa 0,0 l/m 2 min 0 min 164 W/m 29,0 km/h (5 Bft) 100,00 %
07.01.2023 12:36 11,2 C 11,7 C 7,8 C 83 % 1011,3 hPa 0,0 l/m 2 min 0 min 191 W/m 19,3 km/h (3 Bft) 100,00 %
07.01.2023 12:38 11,2 C 11,7 C 7,8 C 84 % 1011,3 hPa 0,0 l/m 2 min 0 min 195 W/m 12,9 km/h (3 Bft) 100,00 %
07.01.2023 12:40 11,3 C 12,2 C 7,8 C 84 % 1011,2 hPa 0,0 l/m 2 min 0 min 193 W/m 16,1 km/h (3 Bft) 97,87 %
07.01.2023 12:42 11,3 C 12,8 C 7,8 C 84 % 1011,2 hPa 0,0 l/m 2 min 0 min 192 W/m 19,3 km/h (3 Bft) 97,87 %
07.01.2023 12:44 11,4 C 12,8 C 7,8 C 84 % 1011,2 hPa 0,0 l/m 2 min 0 min 221 W/m 22,5 km/h (4 Bft) 97,87 %
07.01.2023 12:46 11,4 C 13,3 C 7,8 C 83 % 1011,1 hPa 0,0 l/m 2 min 0 min 169 W/m 19,3 km/h (3 Bft) 97,87 %
07.01.2023 12:48 11,5 C 13,3 C 7,8 C 83 % 1011,2 hPa 0,0 l/m 2 min 0 min 179 W/m 22,5 km/h (4 Bft) 97,83 %
07.01.2023 12:50 11,6 C 12,8 C 7,8 C 83 % 1011,1 hPa 0,0 l/m 0 min 0 min 119 W/m 25,7 km/h (4 Bft) 95,74 %
07.01.2023 12:52 11,6 C 13,3 C 7,8 C 82 % 1011,0 hPa 0,0 l/m 0 min 0 min 128 W/m 19,3 km/h (3 Bft) 97,87 %
07.01.2023 12:54 11,6 C 14,4 C 7,8 C 82 % 1011,0 hPa 0,0 l/m 2 min 0 min 303 W/m 22,5 km/h (4 Bft) 100,00 %
07.01.2023 12:56 11,7 C 13,9 C 7,8 C 82 % 1010,9 hPa 0,0 l/m 2 min 0 min 320 W/m 22,5 km/h (4 Bft) 97,87 %
07.01.2023 12:58 11,7 C 15,6 C 7,8 C 82 % 1010,9 hPa 0,0 l/m 2 min 0 min 295 W/m 22,5 km/h (4 Bft) 95,12 %
07.01.2023 13:00 11,8 C 15,6 C 7,8 C 82 % 1010,8 hPa 0,0 l/m 2 min 0 min 296 W/m 12,9 km/h (3 Bft) 97,87 %
07.01.2023 13:02 11,8 C 15,6 C 7,8 C 81 % 1010,8 hPa 0,0 l/m 2 min 0 min 299 W/m 16,1 km/h (3 Bft) 97,87 %
07.01.2023 13:04 11,9 C 13,9 C 7,8 C 81 % 1010,8 hPa 0,0 l/m 2 min 0 min 187 W/m 22,5 km/h (4 Bft) 93,88 %
07.01.2023 13:06 11,9 C 15,6 C 7,8 C 80 % 1010,8 hPa 0,0 l/m 0 min 0 min 149 W/m 19,3 km/h (3 Bft) 95,74 %
07.01.2023 13:08 11,9 C 16,1 C 7,8 C 79 % 1010,7 hPa 0,0 l/m 2 min 0 min 318 W/m 38,6 km/h (5 Bft) 95,74 %
07.01.2023 13:10 12,0 C 16,1 C 7,8 C 78 % 1010,7 hPa 0,0 l/m 2 min 0 min 316 W/m 32,2 km/h (5 Bft) 95,74 %
07.01.2023 13:12 12,0 C 16,1 C 7,8 C 77 % 1010,6 hPa 0,0 l/m 2 min 0 min 293 W/m 22,5 km/h (4 Bft) 95,74 %
07.01.2023 13:14 12,1 C 16,1 C 7,8 C 76 % 1010,7 hPa 0,0 l/m 2 min 0 min 299 W/m 29,0 km/h (5 Bft) 95,74 %
07.01.2023 13:16 12,1 C 15,6 C 7,8 C 76 % 1010,6 hPa 0,0 l/m 2 min 0 min 302 W/m 32,2 km/h (5 Bft) 93,62 %
07.01.2023 13:18 12,2 C 15,0 C 7,8 C 75 % 1010,6 hPa 0,0 l/m 2 min 0 min 267 W/m 19,3 km/h (3 Bft) 95,65 %
07.01.2023 13:20 12,2 C 16,1 C 7,8 C 75 % 1010,5 hPa 0,0 l/m 2 min 0 min 276 W/m 16,1 km/h (3 Bft) 91,49 %
07.01.2023 13:22 12,3 C 16,1 C 7,8 C 75 % 1010,5 hPa 0,0 l/m 2 min 0 min 309 W/m 25,7 km/h (4 Bft) 95,74 %
07.01.2023 13:24 12,3 C 16,7 C 7,8 C 75 % 1010,5 hPa 0,0 l/m 2 min 0 min 308 W/m 12,9 km/h (3 Bft) 95,74 %
07.01.2023 13:26 12,4 C 16,1 C 7,8 C 74 % 1010,5 hPa 0,0 l/m 2 min 0 min 295 W/m 25,7 km/h (4 Bft) 95,74 %
07.01.2023 13:28 12,4 C 16,1 C 7,8 C 74 % 1010,4 hPa 0,0 l/m 2 min 0 min 307 W/m 25,7 km/h (4 Bft) 95,74 %
07.01.2023 13:30 12,4 C 16,1 C 7,8 C 74 % 1010,3 hPa 0,0 l/m 2 min 0 min 306 W/m 19,3 km/h (3 Bft) 95,74 %
07.01.2023 13:32 12,5 C 16,1 C 7,8 C 73 % 1010,4 hPa 0,0 l/m 2 min 0 min 292 W/m 22,5 km/h (4 Bft) 95,65 %
07.01.2023 13:34 12,5 C 15,6 C 7,8 C 73 % 1010,3 hPa 0,0 l/m 2 min 0 min 276 W/m 32,2 km/h (5 Bft) 95,74 %
07.01.2023 13:36 12,5 C 15,6 C 7,8 C 73 % 1010,3 hPa 0,0 l/m 2 min 0 min 288 W/m 22,5 km/h (4 Bft) 93,62 %
07.01.2023 13:38 12,6 C 16,7 C 7,8 C 73 % 1010,3 hPa 0,0 l/m 2 min 0 min 294 W/m 22,5 km/h (4 Bft) 95,74 %
07.01.2023 13:40 12,6 C 16,7 C 7,8 C 73 % 1010,2 hPa 0,0 l/m 2 min 0 min 256 W/m 16,1 km/h (3 Bft) 93,62 %
07.01.2023 13:42 12,6 C 16,1 C 7,8 C 73 % 1010,2 hPa 0,0 l/m 2 min 0 min 256 W/m 25,7 km/h (4 Bft) 95,74 %
07.01.2023 13:44 12,6 C 15,6 C 7,8 C 72 % 1010,2 hPa 0,0 l/m 2 min 0 min 261 W/m 25,7 km/h (4 Bft) 95,74 %
07.01.2023 13:46 12,6 C 15,6 C 7,8 C 72 % 1010,1 hPa 0,0 l/m 2 min 0 min 267 W/m 12,9 km/h (3 Bft) 95,65 %
07.01.2023 13:48 12,6 C 15,6 C 7,8 C 73 % 1010,0 hPa 0,0 l/m 2 min 0 min 240 W/m 19,3 km/h (3 Bft) 95,74 %
07.01.2023 13:50 12,6 C 15,0 C 7,8 C 73 % 1010,1 hPa 0,0 l/m 2 min 0 min 220 W/m 25,7 km/h (4 Bft) 97,87 %
07.01.2023 13:52 12,6 C 14,4 C 7,8 C 73 % 1010,0 hPa 0,0 l/m 2 min 0 min 234 W/m 16,1 km/h (3 Bft) 95,74 %
07.01.2023 13:54 12,6 C 14,4 C 7,8 C 73 % 1010,0 hPa 0,0 l/m 2 min 0 min 216 W/m 19,3 km/h (3 Bft) 97,14 %
07.01.2023 13:56 12,6 C 13,9 C 7,8 C 73 % 1009,9 hPa 0,0 l/m 2 min 0 min 223 W/m 22,5 km/h (4 Bft) 100,00 %
07.01.2023 13:58 12,6 C 13,9 C 7,8 C 73 % 1009,9 hPa 0,0 l/m 2 min 0 min 215 W/m 25,7 km/h (4 Bft) 100,00 %
07.01.2023 14:00 12,6 C 13,3 C 7,8 C 73 % 1009,9 hPa 0,0 l/m 2 min 0 min 176 W/m 22,5 km/h (4 Bft) 100,00 %
07.01.2023 14:02 12,5 C 13,3 C 7,8 C 73 % 1009,9 hPa 0,0 l/m 2 min 0 min 176 W/m 16,1 km/h (3 Bft) 97,87 %
07.01.2023 14:04 12,4 C 12,8 C 7,8 C 73 % 1009,9 hPa 0,0 l/m 2 min 0 min 176 W/m 19,3 km/h (3 Bft) 100,00 %
07.01.2023 14:06 12,4 C 12,8 C 7,8 C 73 % 1009,7 hPa 0,0 l/m 2 min 0 min 188 W/m 22,5 km/h (4 Bft) 100,00 %
07.01.2023 14:08 12,4 C 12,8 C 7,8 C 73 % 1009,8 hPa 0,0 l/m 2 min 0 min 193 W/m 22,5 km/h (4 Bft) 100,00 %
07.01.2023 14:10 12,4 C 12,8 C 7,8 C 73 % 1009,7 hPa 0,0 l/m 2 min 0 min 198 W/m 32,2 km/h (5 Bft) 100,00 %
07.01.2023 14:12 12,4 C 12,8 C 7,8 C 73 % 1009,7 hPa 0,0 l/m 2 min 0 min 205 W/m 16,1 km/h (3 Bft) 100,00 %
07.01.2023 14:14 12,4 C 12,8 C 7,8 C 73 % 1009,7 hPa 0,0 l/m 2 min 0 min 169 W/m 19,3 km/h (3 Bft) 100,00 %
07.01.2023 14:16 12,4 C 12,8 C 7,8 C 73 % 1009,7 hPa 0,0 l/m 2 min 0 min 151 W/m 16,1 km/h (3 Bft) 100,00 %
07.01.2023 14:18 12,4 C 12,8 C 7,8 C 73 % 1009,6 hPa 0,0 l/m 2 min 0 min 161 W/m 16,1 km/h (3 Bft) 100,00 %
07.01.2023 14:20 12,4 C 12,8 C 7,8 C 74 % 1009,7 hPa 0,0 l/m 2 min 0 min 158 W/m 12,9 km/h (3 Bft) 100,00 %
07.01.2023 14:22 12,4 C 12,8 C 7,8 C 74 % 1009,5 hPa 0,0 l/m 2 min 0 min 148 W/m 19,3 km/h (3 Bft) 97,87 %
07.01.2023 14:24 12,4 C 12,2 C 7,8 C 74 % 1009,6 hPa 0,0 l/m 2 min 0 min 155 W/m 16,1 km/h (3 Bft) 97,87 %
07.01.2023 14:26 12,3 C 12,2 C 7,8 C 74 % 1009,6 hPa 0,0 l/m 2 min 0 min 197 W/m 19,3 km/h (3 Bft) 97,87 %
07.01.2023 14:28 12,3 C 12,2 C 7,8 C 74 % 1009,5 hPa 0,0 l/m 2 min 0 min 225 W/m 19,3 km/h (3 Bft) 95,74 %
07.01.2023 14:30 12,4 C 12,8 C 7,8 C 74 % 1009,4 hPa 0,0 l/m 2 min 0 min 241 W/m 16,1 km/h (3 Bft) 97,87 %
07.01.2023 14:32 12,4 C 13,3 C 7,8 C 74 % 1009,4 hPa 0,0 l/m 2 min 0 min 235 W/m 12,9 km/h (3 Bft) 97,83 %
07.01.2023 14:34 12,4 C 13,3 C 7,8 C 74 % 1009,4 hPa 0,0 l/m 2 min 0 min 239 W/m 19,3 km/h (3 Bft) 97,87 %
07.01.2023 14:36 12,4 C 13,9 C 7,8 C 73 % 1009,4 hPa 0,0 l/m 2 min 0 min 240 W/m 19,3 km/h (3 Bft) 97,87 %
07.01.2023 14:38 12,4 C 13,3 C 7,8 C 73 % 1009,4 hPa 0,0 l/m 2 min 0 min 235 W/m 19,3 km/h (3 Bft) 97,87 %
07.01.2023 14:40 12,5 C 12,8 C 7,8 C 73 % 1009,3 hPa 0,0 l/m 2 min 0 min 188 W/m 19,3 km/h (3 Bft) 97,87 %
07.01.2023 14:42 12,5 C 12,8 C 7,8 C 73 % 1009,4 hPa 0,0 l/m 2 min 0 min 170 W/m 16,1 km/h (3 Bft) 97,87 %
07.01.2023 14:44 12,5 C 12,8 C 7,8 C 73 % 1009,3 hPa 0,0 l/m 2 min 0 min 154 W/m 16,1 km/h (3 Bft) 97,83 %
07.01.2023 14:46 12,5 C 12,8 C 7,8 C 73 % 1009,3 hPa 0,0 l/m 2 min 0 min 143 W/m 25,7 km/h (4 Bft) 93,62 %
07.01.2023 14:48 12,5 C 12,8 C 7,8 C 73 % 1009,3 hPa 0,0 l/m 2 min 0 min 136 W/m 16,1 km/h (3 Bft) 97,87 %
07.01.2023 14:50 12,5 C 12,8 C 7,8 C 73 % 1009,2 hPa 0,0 l/m 2 min 0 min 145 W/m 19,3 km/h (3 Bft) 97,87 %
07.01.2023 14:52 12,5 C 12,8 C 7,8 C 73 % 1009,3 hPa 0,0 l/m 2 min 0 min 138 W/m 19,3 km/h (3 Bft) 97,87 %
07.01.2023 14:54 12,5 C 12,8 C 7,8 C 73 % 1009,2 hPa 0,0 l/m 2 min 0 min 136 W/m 16,1 km/h (3 Bft) 95,74 %
07.01.2023 14:56 12,5 C 12,8 C 7,8 C 73 % 1009,2 hPa 0,0 l/m 2 min 0 min 129 W/m 22,5 km/h (4 Bft) 96,15 %
07.01.2023 14:58 12,5 C 12,2 C 7,8 C 73 % 1009,2 hPa 0,0 l/m 2 min 0 min 123 W/m 16,1 km/h (3 Bft) 97,87 %
07.01.2023 15:00 12,5 C 12,2 C 7,8 C 73 % 1009,1 hPa 0,0 l/m 2 min 0 min 140 W/m 22,5 km/h (4 Bft) 95,74 %
07.01.2023 15:02 12,4 C 11,7 C 7,8 C 73 % 1009,1 hPa 0,0 l/m 2 min 0 min 128 W/m 19,3 km/h (3 Bft) 97,56 %
07.01.2023 15:04 12,4 C 11,7 C 7,8 C 73 % 1009,1 hPa 0,0 l/m 2 min 0 min 107 W/m 25,7 km/h (4 Bft) 97,87 %
07.01.2023 15:06 12,4 C 11,7 C 7,8 C 73 % 1009,0 hPa 0,0 l/m 0 min 0 min 85 W/m 19,3 km/h (3 Bft) 100,00 %
07.01.2023 15:08 12,4 C 11,7 C 7,8 C 73 % 1009,0 hPa 0,0 l/m 2 min 0 min 101 W/m 22,5 km/h (4 Bft) 97,14 %
07.01.2023 15:10 12,3 C 11,7 C 7,8 C 73 % 1009,0 hPa 0,0 l/m 0 min 0 min 91 W/m 25,7 km/h (4 Bft) 100,00 %
07.01.2023 15:12 12,3 C 11,7 C 7,2 C 73 % 1008,9 hPa 0,0 l/m 0 min 0 min 82 W/m 12,9 km/h (3 Bft) 100,00 %
07.01.2023 15:14 12,3 C 11,7 C 7,2 C 74 % 1008,9 hPa 0,0 l/m 0 min 0 min 72 W/m 22,5 km/h (4 Bft) 97,87 %
07.01.2023 15:16 12,2 C 11,7 C 7,2 C 74 % 1008,9 hPa 0,0 l/m 0 min 0 min 69 W/m 16,1 km/h (3 Bft) 100,00 %
07.01.2023 15:18 12,2 C 11,1 C 7,2 C 74 % 1008,9 hPa 0,0 l/m 0 min 0 min 70 W/m 12,9 km/h (3 Bft) 100,00 %
07.01.2023 15:20 12,1 C 11,1 C 7,2 C 74 % 1008,9 hPa 0,0 l/m 0 min 0 min 72 W/m 19,3 km/h (3 Bft) 100,00 %
07.01.2023 15:22 12,1 C 11,1 C 7,2 C 74 % 1008,9 hPa 0,0 l/m 0 min 0 min 64 W/m 16,1 km/h (3 Bft) 100,00 %
07.01.2023 15:24 12,1 C 11,1 C 7,2 C 74 % 1008,9 hPa 0,0 l/m 0 min 0 min 60 W/m 22,5 km/h (4 Bft) 100,00 %
07.01.2023 15:26 12,0 C 11,1 C 7,2 C 74 % 1008,9 hPa 0,0 l/m 0 min 0 min 56 W/m 19,3 km/h (3 Bft) 97,87 %
07.01.2023 15:28 11,9 C 11,1 C 7,2 C 75 % 1008,8 hPa 0,0 l/m 0 min 0 min 49 W/m 22,5 km/h (4 Bft) 100,00 %
07.01.2023 15:30 11,9 C 11,1 C 7,2 C 75 % 1008,8 hPa 0,0 l/m 0 min 0 min 47 W/m 16,1 km/h (3 Bft) 100,00 %
07.01.2023 15:32 11,8 C 11,1 C 7,2 C 75 % 1008,7 hPa 0,0 l/m 0 min 0 min 46 W/m 22,5 km/h (4 Bft) 100,00 %
07.01.2023 15:34 11,8 C 11,1 C 7,2 C 75 % 1008,7 hPa 0,0 l/m 0 min 0 min 45 W/m 16,1 km/h (3 Bft) 95,74 %
07.01.2023 15:36 11,8 C 11,1 C 7,2 C 75 % 1008,6 hPa 0,0 l/m 0 min 0 min 44 W/m 29,0 km/h (5 Bft) 100,00 %
07.01.2023 15:38 11,7 C 10,6 C 7,2 C 75 % 1008,6 hPa 0,0 l/m 0 min 0 min 43 W/m 25,7 km/h (4 Bft) 100,00 %
07.01.2023 15:40 11,7 C 10,6 C 7,2 C 75 % 1008,6 hPa 0,0 l/m 0 min 0 min 41 W/m 19,3 km/h (3 Bft) 100,00 %
07.01.2023 15:45 11,6 C 10,6 C 7,2 C 75 % 1008,5 hPa 0,0 l/m 0 min 0 min 39 W/m 29,0 km/h (5 Bft) 100,00 %
07.01.2023 15:50 11,5 C 10,6 C 6,7 C 75 % 1008,6 hPa 0,0 l/m 0 min 0 min 36 W/m 16,1 km/h (3 Bft) 97,37 %
07.01.2023 15:55 11,4 C 10,6 C 6,7 C 76 % 1008,5 hPa 0,0 l/m 0 min 0 min 34 W/m 16,1 km/h (3 Bft) 98,25 %
07.01.2023 15:58 11,3 C 10,6 C 6,7 C 76 % 1008,5 hPa 0,0 l/m 0 min 0 min 32 W/m 12,9 km/h (3 Bft) 93,33 %
07.01.2023 16:00 11,3 C 10,6 C 6,7 C 76 % 1008,4 hPa 0,0 l/m 0 min 0 min 30 W/m 16,1 km/h (3 Bft) 95,45 %
07.01.2023 16:02 11,3 C 10,6 C 6,7 C 77 % 1008,4 hPa 0,0 l/m 0 min 0 min 28 W/m 16,1 km/h (3 Bft) 95,74 %
07.01.2023 16:04 11,2 C 10,0 C 6,7 C 77 % 1008,4 hPa 0,0 l/m 0 min 0 min 26 W/m 19,3 km/h (3 Bft) 95,45 %
07.01.2023 16:06 11,2 C 10,0 C 6,7 C 77 % 1008,4 hPa 0,0 l/m 0 min 0 min 25 W/m 12,9 km/h (3 Bft) 93,62 %
07.01.2023 16:10 11,1 C 10,0 C 6,7 C 77 % 1008,4 hPa 0,0 l/m 0 min 0 min 23 W/m 16,1 km/h (3 Bft) 97,37 %
07.01.2023 16:16 11,0 C 10,0 C 6,1 C 78 % 1008,5 hPa 0,0 l/m 0 min 0 min 23 W/m 16,1 km/h (3 Bft) 94,86 %
07.01.2023 16:18 10,9 C 10,0 C 6,1 C 78 % 1008,5 hPa 0,0 l/m 0 min 0 min 16 W/m 16,1 km/h (3 Bft) 98,48 %
07.01.2023 16:20 10,9 C 10,0 C 6,1 C 78 % 1008,5 hPa 0,0 l/m 0 min 0 min 14 W/m 16,1 km/h (3 Bft) 98,00 %
07.01.2023 16:22 10,8 C 10,0 C 6,1 C 78 % 1008,5 hPa 0,0 l/m 0 min 0 min 13 W/m 16,1 km/h (3 Bft) 95,83 %
07.01.2023 16:24 10,8 C 10,0 C 6,1 C 78 % 1008,4 hPa 0,0 l/m 0 min 0 min 12 W/m 9,7 km/h (2 Bft) 97,87 %
07.01.2023 16:26 10,8 C 9,4 C 6,1 C 78 % 1008,4 hPa 0,0 l/m 0 min 0 min 11 W/m 16,1 km/h (3 Bft) 93,62 %
07.01.2023 16:28 10,8 C 9,4 C 6,1 C 78 % 1008,3 hPa 0,0 l/m 0 min 0 min 11 W/m 16,1 km/h (3 Bft) 97,83 %
07.01.2023 16:30 10,7 C 9,4 C 6,1 C 79 % 1008,3 hPa 0,0 l/m 0 min 0 min 9 W/m 29,0 km/h (5 Bft) 100,00 %
07.01.2023 16:32 10,7 C 9,4 C 6,1 C 79 % 1008,2 hPa 0,0 l/m 0 min 0 min 8 W/m 22,5 km/h (4 Bft) 100,00 %
07.01.2023 16:34 10,6 C 9,4 C 6,1 C 79 % 1008,1 hPa 0,0 l/m 0 min 0 min 7 W/m 12,9 km/h (3 Bft) 100,00 %
07.01.2023 16:36 10,6 C 9,4 C 6,1 C 79 % 1008,1 hPa 0,0 l/m 0 min 0 min 7 W/m 16,1 km/h (3 Bft) 97,87 %
07.01.2023 16:38 10,6 C 9,4 C 6,1 C 79 % 1008,0 hPa 0,0 l/m 0 min 0 min 7 W/m 19,3 km/h (3 Bft) 100,00 %
07.01.2023 16:40 10,5 C 9,4 C 6,1 C 79 % 1008,0 hPa 0,0 l/m 0 min 0 min 7 W/m 19,3 km/h (3 Bft) 95,74 %
07.01.2023 16:42 10,4 C 9,4 C 6,1 C 79 % 1008,0 hPa 0,0 l/m 0 min 0 min 9 W/m 16,1 km/h (3 Bft) 100,00 %
07.01.2023 16:44 10,4 C 9,4 C 6,1 C 80 % 1007,9 hPa 0,0 l/m 0 min 0 min 6 W/m 22,5 km/h (4 Bft) 100,00 %
07.01.2023 16:46 10,4 C 9,4 C 5,6 C 80 % 1007,8 hPa 0,0 l/m 0 min 0 min 3 W/m 12,9 km/h (3 Bft) 100,00 %
07.01.2023 16:48 10,3 C 9,4 C 5,6 C 80 % 1007,8 hPa 0,0 l/m 0 min 0 min 0 W/m 12,9 km/h (3 Bft) 100,00 %
07.01.2023 16:50 10,3 C 9,4 C 5,6 C 80 % 1007,8 hPa 0,0 l/m 0 min 0 min 0 W/m 19,3 km/h (3 Bft) 100,00 %
07.01.2023 16:52 10,2 C 9,4 C 5,6 C 80 % 1007,8 hPa 0,0 l/m 0 min 0 min 0 W/m 16,1 km/h (3 Bft) 100,00 %
07.01.2023 16:54 10,2 C 8,9 C 5,6 C 80 % 1007,9 hPa 0,0 l/m 0 min 0 min 0 W/m 19,3 km/h (3 Bft) 100,00 %
07.01.2023 16:56 10,2 C 8,9 C 5,6 C 81 % 1007,9 hPa 0,0 l/m 0 min 0 min 0 W/m 16,1 km/h (3 Bft) 100,00 %
07.01.2023 16:58 10,1 C 8,9 C 5,6 C 81 % 1007,9 hPa 0,0 l/m 0 min 0 min 0 W/m 22,5 km/h (4 Bft) 100,00 %
07.01.2023 17:00 10,1 C 8,9 C 5,6 C 81 % 1007,8 hPa 0,0 l/m 0 min 0 min 0 W/m 16,1 km/h (3 Bft) 100,00 %
07.01.2023 17:02 10,1 C 8,9 C 5,6 C 81 % 1007,9 hPa 0,0 l/m 0 min 0 min 0 W/m 16,1 km/h (3 Bft) 100,00 %
07.01.2023 17:04 10,0 C 8,9 C 5,6 C 81 % 1007,9 hPa 0,0 l/m 0 min 0 min 0 W/m 12,9 km/h (3 Bft) 97,87 %
07.01.2023 17:06 9,9 C 8,9 C 5,6 C 81 % 1007,9 hPa 0,0 l/m 0 min 0 min 0 W/m 16,1 km/h (3 Bft) 97,87 %
07.01.2023 17:08 9,9 C 8,9 C 5,6 C 81 % 1007,9 hPa 0,0 l/m 0 min 0 min 0 W/m 12,9 km/h (3 Bft) 45,95 %
07.01.2023 17:10 9,8 C 8,3 C 5,6 C 81 % 1007,9 hPa 0,0 l/m 0 min 0 min 0 W/m 12,9 km/h (3 Bft) 97,87 %
07.01.2023 17:12 9,8 C 8,3 C 5,6 C 81 % 1007,9 hPa 0,0 l/m 0 min 0 min 0 W/m 19,3 km/h (3 Bft) 95,74 %
07.01.2023 17:14 9,8 C 8,3 C 5,0 C 82 % 1007,9 hPa 0,0 l/m 0 min 0 min 0 W/m 16,1 km/h (3 Bft) 97,87 %
07.01.2023 17:16 9,7 C 8,3 C 5,0 C 82 % 1007,8 hPa 0,0 l/m 0 min 0 min 0 W/m 12,9 km/h (3 Bft) 95,65 %
07.01.2023 17:18 9,7 C 8,3 C 5,0 C 82 % 1007,8 hPa 0,0 l/m 0 min 0 min 0 W/m 12,9 km/h (3 Bft) 93,62 %
07.01.2023 17:20 9,7 C 8,3 C 5,0 C 82 % 1007,7 hPa 0,0 l/m 0 min 0 min 0 W/m 16,1 km/h (3 Bft) 97,87 %
07.01.2023 17:22 9,6 C 8,3 C 5,0 C 82 % 1007,7 hPa 0,0 l/m 0 min 0 min 0 W/m 12,9 km/h (3 Bft) 97,87 %
07.01.2023 17:24 9,6 C 8,3 C 5,0 C 82 % 1007,7 hPa 0,0 l/m 0 min 0 min 0 W/m 12,9 km/h (3 Bft) 93,62 %
07.01.2023 17:26 9,6 C 8,3 C 5,0 C 82 % 1007,6 hPa 0,0 l/m 0 min 0 min 0 W/m 19,3 km/h (3 Bft) 95,74 %
07.01.2023 17:28 9,5 C 8,3 C 5,0 C 82 % 1007,6 hPa 0,0 l/m 0 min 0 min 0 W/m 16,1 km/h (3 Bft) 97,87 %
07.01.2023 17:30 9,5 C 8,3 C 5,0 C 82 % 1007,6 hPa 0,0 l/m 0 min 0 min 0 W/m 16,1 km/h (3 Bft) 95,65 %
07.01.2023 17:32 9,5 C 8,3 C 5,0 C 82 % 1007,6 hPa 0,0 l/m 0 min 0 min 0 W/m 12,9 km/h (3 Bft) 97,87 %
07.01.2023 17:34 9,5 C 8,9 C 5,0 C 82 % 1007,6 hPa 0,0 l/m 0 min 0 min 0 W/m 16,1 km/h (3 Bft) 91,49 %
07.01.2023 17:36 9,5 C 8,9 C 5,6 C 82 % 1007,6 hPa 0,0 l/m 0 min 0 min 0 W/m 19,3 km/h (3 Bft) 93,62 %
07.01.2023 17:38 9,5 C 8,9 C 5,6 C 82 % 1007,6 hPa 0,0 l/m 0 min 0 min 0 W/m 16,1 km/h (3 Bft) 97,87 %
07.01.2023 17:40 9,5 C 8,9 C 5,6 C 82 % 1007,6 hPa 0,0 l/m 0 min 0 min 0 W/m 29,0 km/h (5 Bft) 95,74 %
07.01.2023 17:42 9,5 C 8,9 C 5,6 C 82 % 1007,5 hPa 0,0 l/m 0 min 0 min 0 W/m 25,7 km/h (4 Bft) 91,49 %
07.01.2023 17:44 9,5 C 8,9 C 5,6 C 82 % 1007,6 hPa 0,0 l/m 0 min 0 min 0 W/m 19,3 km/h (3 Bft) 95,74 %
07.01.2023 17:46 9,6 C 8,9 C 5,6 C 82 % 1007,5 hPa 0,0 l/m 0 min 0 min 0 W/m 16,1 km/h (3 Bft) 95,65 %
07.01.2023 17:48 9,6 C 8,9 C 5,6 C 82 % 1007,5 hPa 0,0 l/m 0 min 0 min 0 W/m 19,3 km/h (3 Bft) 93,62 %
07.01.2023 17:50 9,6 C 8,9 C 5,6 C 82 % 1007,6 hPa 0,0 l/m 0 min 0 min 0 W/m 22,5 km/h (4 Bft) 93,62 %
07.01.2023 17:52 9,6 C 8,9 C 5,6 C 82 % 1007,6 hPa 0,0 l/m 0 min 0 min 0 W/m 19,3 km/h (3 Bft) 95,74 %
07.01.2023 17:54 9,6 C 8,9 C 5,6 C 82 % 1007,6 hPa 0,0 l/m 0 min 0 min 0 W/m 19,3 km/h (3 Bft) 93,62 %
07.01.2023 17:56 9,6 C 8,9 C 5,6 C 82 % 1007,5 hPa 0,0 l/m 0 min 0 min 0 W/m 19,3 km/h (3 Bft) 95,74 %
07.01.2023 17:58 9,6 C 8,9 C 5,6 C 82 % 1007,6 hPa 0,0 l/m 0 min 0 min 0 W/m 19,3 km/h (3 Bft) 97,87 %
07.01.2023 18:00 9,6 C 8,9 C 5,6 C 82 % 1007,5 hPa 0,0 l/m 0 min 0 min 0 W/m 19,3 km/h (3 Bft) 93,48 %
07.01.2023 18:02 9,6 C 8,9 C 5,6 C 82 % 1007,6 hPa 0,0 l/m 0 min 0 min 0 W/m 16,1 km/h (3 Bft) 93,62 %
07.01.2023 18:04 9,6 C 8,9 C 5,0 C 82 % 1007,5 hPa 0,0 l/m 0 min 0 min 0 W/m 19,3 km/h (3 Bft) 95,74 %
07.01.2023 18:08 9,5 C 8,3 C 5,0 C 82 % 1007,6 hPa 0,0 l/m 0 min 0 min 0 W/m 19,3 km/h (3 Bft) 95,12 %
07.01.2023 18:10 9,5 C 8,3 C 5,0 C 82 % 1007,6 hPa 0,0 l/m 0 min 0 min 0 W/m 16,1 km/h (3 Bft) 97,87 %
07.01.2023 18:12 9,5 C 8,9 C 5,0 C 82 % 1007,5 hPa 0,0 l/m 0 min 0 min 0 W/m 16,1 km/h (3 Bft) 91,49 %
07.01.2023 18:14 9,5 C 8,3 C 5,0 C 82 % 1007,6 hPa 0,0 l/m 0 min 0 min 0 W/m 16,1 km/h (3 Bft) 97,87 %
07.01.2023 18:16 9,5 C 8,3 C 5,0 C 82 % 1007,6 hPa 0,0 l/m 0 min 0 min 0 W/m 12,9 km/h (3 Bft) 97,83 %
07.01.2023 18:18 9,4 C 8,3 C 5,0 C 82 % 1007,6 hPa 0,0 l/m 0 min 0 min 0 W/m 19,3 km/h (3 Bft) 93,62 %
07.01.2023 18:20 9,4 C 8,3 C 5,0 C 82 % 1007,6 hPa 0,0 l/m 0 min 0 min 0 W/m 12,9 km/h (3 Bft) 97,87 %
07.01.2023 18:22 9,4 C 8,3 C 5,0 C 82 % 1007,5 hPa 0,0 l/m 0 min 0 min 0 W/m 19,3 km/h (3 Bft) 97,87 %
07.01.2023 18:24 9,4 C 8,3 C 5,0 C 83 % 1007,5 hPa 0,0 l/m 0 min 0 min 0 W/m 22,5 km/h (4 Bft) 95,74 %
07.01.2023 18:26 9,4 C 8,3 C 5,0 C 83 % 1007,5 hPa 0,0 l/m 0 min 0 min 0 W/m 25,7 km/h (4 Bft) 95,74 %
07.01.2023 18:28 9,4 C 8,3 C 5,0 C 83 % 1007,5 hPa 0,0 l/m 0 min 0 min 0 W/m 19,3 km/h (3 Bft) 97,87 %
07.01.2023 18:30 9,4 C 8,9 C 5,0 C 83 % 1007,5 hPa 0,0 l/m 0 min 0 min 0 W/m 19,3 km/h (3 Bft) 95,65 %
07.01.2023 18:32 9,4 C 8,9 C 5,0 C 83 % 1007,3 hPa 0,0 l/m 0 min 0 min 0 W/m 12,9 km/h (3 Bft) 97,87 %
07.01.2023 18:34 9,4 C 8,9 C 5,0 C 83 % 1007,3 hPa 0,0 l/m 0 min 0 min 0 W/m 16,1 km/h (3 Bft) 97,87 %
07.01.2023 18:36 9,4 C 8,9 C 5,6 C 83 % 1007,3 hPa 0,0 l/m 0 min 0 min 0 W/m 19,3 km/h (3 Bft) 97,87 %
07.01.2023 18:38 9,4 C 8,9 C 5,6 C 83 % 1007,3 hPa 0,0 l/m 0 min 0 min 0 W/m 12,9 km/h (3 Bft) 97,87 %
07.01.2023 18:40 9,4 C 8,9 C 5,6 C 83 % 1007,3 hPa 0,0 l/m 0 min 0 min 0 W/m 19,3 km/h (3 Bft) 93,62 %
07.01.2023 18:42 9,4 C 8,9 C 5,6 C 83 % 1007,3 hPa 0,0 l/m 0 min 0 min 0 W/m 29,0 km/h (5 Bft) 95,74 %
07.01.2023 18:44 9,4 C 8,9 C 5,6 C 83 % 1007,3 hPa 0,0 l/m 0 min 0 min 0 W/m 19,3 km/h (3 Bft) 97,83 %
07.01.2023 18:46 9,4 C 8,9 C 5,6 C 83 % 1007,3 hPa 0,0 l/m 0 min 0 min 0 W/m 19,3 km/h (3 Bft) 95,74 %
07.01.2023 18:48 9,4 C 8,9 C 5,6 C 83 % 1007,3 hPa 0,0 l/m 0 min 0 min 0 W/m 16,1 km/h (3 Bft) 97,87 %
07.01.2023 18:50 9,4 C 8,9 C 5,6 C 83 % 1007,2 hPa 0,0 l/m 0 min 0 min 0 W/m 19,3 km/h (3 Bft) 95,74 %
07.01.2023 18:52 9,4 C 8,9 C 5,6 C 83 % 1007,3 hPa 0,0 l/m 0 min 0 min 0 W/m 19,3 km/h (3 Bft) 97,87 %
07.01.2023 18:54 9,4 C 8,9 C 5,6 C 84 % 1007,3 hPa 0,0 l/m 0 min 0 min 0 W/m 16,1 km/h (3 Bft) 100,00 %
07.01.2023 18:56 9,4 C 8,9 C 5,6 C 84 % 1007,2 hPa 0,0 l/m 0 min 0 min 0 W/m 19,3 km/h (3 Bft) 100,00 %
07.01.2023 18:58 9,5 C 8,9 C 5,6 C 84 % 1007,2 hPa 0,0 l/m 0 min 0 min 0 W/m 16,1 km/h (3 Bft) 97,83 %
07.01.2023 19:00 9,5 C 8,9 C 5,6 C 84 % 1007,2 hPa 0,0 l/m 0 min 0 min 0 W/m 19,3 km/h (3 Bft) 97,87 %
07.01.2023 19:02 9,5 C 8,9 C 5,6 C 84 % 1007,2 hPa 0,0 l/m 0 min 0 min 0 W/m 16,1 km/h (3 Bft) 100,00 %
07.01.2023 19:04 9,5 C 8,9 C 5,6 C 84 % 1007,1 hPa 0,0 l/m 0 min 0 min 0 W/m 22,5 km/h (4 Bft) 100,00 %
07.01.2023 19:06 9,5 C 8,9 C 5,6 C 84 % 1007,0 hPa 0,0 l/m 0 min 0 min 0 W/m 19,3 km/h (3 Bft) 100,00 %
07.01.2023 19:08 9,5 C 8,9 C 5,6 C 84 % 1007,0 hPa 0,0 l/m 0 min 0 min 0 W/m 19,3 km/h (3 Bft) 97,14 %
07.01.2023 19:10 9,5 C 8,9 C 5,6 C 84 % 1007,0 hPa 0,0 l/m 0 min 0 min 0 W/m 19,3 km/h (3 Bft) 97,87 %
07.01.2023 19:12 9,6 C 8,9 C 5,0 C 84 % 1007,0 hPa 0,0 l/m 0 min 2 min 0 W/m 16,1 km/h (3 Bft) 97,83 %
07.01.2023 19:14 9,6 C 8,9 C 4,4 C 84 % 1007,0 hPa 0,0 l/m 0 min 2 min 0 W/m 19,3 km/h (3 Bft) 97,87 %
07.01.2023 19:16 9,6 C 8,9 C 4,4 C 84 % 1007,0 hPa 0,0 l/m 0 min 2 min 0 W/m 16,1 km/h (3 Bft) 97,87 %
07.01.2023 19:18 9,6 C 8,9 C 4,4 C 84 % 1006,9 hPa 0,0 l/m 0 min 0 min 0 W/m 16,1 km/h (3 Bft) 100,00 %
07.01.2023 19:20 9,6 C 8,9 C 4,4 C 84 % 1006,8 hPa 0,0 l/m 0 min 0 min 0 W/m 16,1 km/h (3 Bft) 100,00 %
07.01.2023 19:22 9,6 C 8,9 C 4,4 C 84 % 1006,8 hPa 0,0 l/m 0 min 0 min 0 W/m 19,3 km/h (3 Bft) 97,87 %
07.01.2023 19:24 9,6 C 8,9 C 4,4 C 85 % 1006,7 hPa 0,0 l/m 0 min 0 min 0 W/m 19,3 km/h (3 Bft) 100,00 %
07.01.2023 19:26 9,5 C 8,9 C 4,4 C 85 % 1006,8 hPa 0,0 l/m 0 min 0 min 0 W/m 19,3 km/h (3 Bft) 100,00 %
07.01.2023 19:28 9,5 C 8,9 C 4,4 C 85 % 1006,8 hPa 0,0 l/m 0 min 0 min 0 W/m 12,9 km/h (3 Bft) 100,00 %
07.01.2023 19:30 9,5 C 8,3 C 4,4 C 85 % 1006,7 hPa 0,0 l/m 0 min 0 min 0 W/m 12,9 km/h (3 Bft) 100,00 %
07.01.2023 19:32 9,5 C 8,3 C 4,4 C 85 % 1006,7 hPa 0,0 l/m 0 min 0 min 0 W/m 12,9 km/h (3 Bft) 100,00 %
07.01.2023 19:34 9,5 C 8,3 C 5,0 C 85 % 1006,7 hPa 0,0 l/m 0 min 0 min 0 W/m 16,1 km/h (3 Bft) 97,87 %
07.01.2023 19:36 9,4 C 8,9 C 5,0 C 85 % 1006,7 hPa 0,0 l/m 0 min 0 min 0 W/m 19,3 km/h (3 Bft) 95,74 %
07.01.2023 19:38 9,4 C 8,3 C 5,0 C 85 % 1006,8 hPa 0,0 l/m 0 min 0 min 0 W/m 16,1 km/h (3 Bft) 97,87 %
07.01.2023 19:40 9,4 C 8,3 C 5,0 C 85 % 1006,8 hPa 0,0 l/m 0 min 0 min 0 W/m 16,1 km/h (3 Bft) 97,83 %
07.01.2023 19:42 9,4 C 8,9 C 5,0 C 85 % 1006,8 hPa 0,0 l/m 0 min 0 min 0 W/m 22,5 km/h (4 Bft) 97,87 %
07.01.2023 19:44 9,4 C 8,9 C 5,0 C 85 % 1006,9 hPa 0,0 l/m 0 min 0 min 0 W/m 12,9 km/h (3 Bft) 97,87 %
07.01.2023 19:46 9,4 C 8,9 C 5,0 C 85 % 1006,8 hPa 0,0 l/m 0 min 0 min 0 W/m 16,1 km/h (3 Bft) 97,87 %
07.01.2023 19:48 9,4 C 8,9 C 5,0 C 85 % 1006,8 hPa 0,0 l/m 0 min 0 min 0 W/m 19,3 km/h (3 Bft) 97,87 %
07.01.2023 19:50 9,4 C 8,9 C 5,0 C 85 % 1006,9 hPa 0,0 l/m 0 min 0 min 0 W/m 19,3 km/h (3 Bft) 97,87 %
07.01.2023 19:52 9,4 C 8,9 C 5,0 C 85 % 1006,9 hPa 0,0 l/m 0 min 0 min 0 W/m 12,9 km/h (3 Bft) 97,83 %
07.01.2023 19:54 9,4 C 8,9 C 5,0 C 85 % 1006,8 hPa 0,0 l/m 0 min 0 min 0 W/m 19,3 km/h (3 Bft) 97,87 %
07.01.2023 19:56 9,4 C 8,9 C 5,0 C 85 % 1006,8 hPa 0,0 l/m 0 min 0 min 0 W/m 9,7 km/h (2 Bft) 97,87 %
07.01.2023 19:58 9,4 C 8,9 C 5,0 C 85 % 1006,8 hPa 0,0 l/m 0 min 0 min 0 W/m 12,9 km/h (3 Bft) 97,87 %
07.01.2023 20:00 9,4 C 8,9 C 5,6 C 85 % 1006,7 hPa 0,0 l/m 0 min 0 min 0 W/m 16,1 km/h (3 Bft) 95,74 %
07.01.2023 20:02 9,4 C 8,9 C 5,6 C 85 % 1006,6 hPa 0,0 l/m 0 min 0 min 0 W/m 16,1 km/h (3 Bft) 95,74 %
07.01.2023 20:04 9,4 C 8,9 C 5,6 C 85 % 1006,7 hPa 0,0 l/m 0 min 0 min 0 W/m 16,1 km/h (3 Bft) 95,74 %
07.01.2023 20:06 9,4 C 8,9 C 5,6 C 85 % 1006,6 hPa 0,0 l/m 0 min 0 min 0 W/m 12,9 km/h (3 Bft) 96,55 %
07.01.2023 20:08 9,4 C 8,9 C 5,6 C 85 % 1006,6 hPa 0,0 l/m 0 min 0 min 0 W/m 22,5 km/h (4 Bft) 97,14 %
07.01.2023 20:10 9,5 C 8,9 C 5,6 C 85 % 1006,5 hPa 0,0 l/m 0 min 0 min 0 W/m 16,1 km/h (3 Bft) 95,74 %
07.01.2023 20:12 9,5 C 8,9 C 5,6 C 85 % 1006,5 hPa 0,0 l/m 0 min 0 min 0 W/m 16,1 km/h (3 Bft) 97,87 %
07.01.2023 20:14 9,6 C 8,9 C 5,6 C 85 % 1006,5 hPa 0,0 l/m 0 min 0 min 0 W/m 16,1 km/h (3 Bft) 91,49 %
07.01.2023 20:16 9,6 C 8,9 C 5,6 C 85 % 1006,6 hPa 0,0 l/m 0 min 0 min 0 W/m 12,9 km/h (3 Bft) 97,87 %
07.01.2023 20:18 9,6 C 8,9 C 5,6 C 84 % 1006,5 hPa 0,0 l/m 0 min 0 min 0 W/m 22,5 km/h (4 Bft) 97,87 %
07.01.2023 20:20 9,6 C 9,4 C 5,6 C 84 % 1006,5 hPa 0,0 l/m 0 min 0 min 0 W/m 16,1 km/h (3 Bft) 97,83 %
07.01.2023 20:22 9,6 C 9,4 C 5,6 C 84 % 1006,5 hPa 0,0 l/m 0 min 0 min 0 W/m 16,1 km/h (3 Bft) 97,87 %
07.01.2023 20:24 9,7 C 9,4 C 5,6 C 84 % 1006,3 hPa 0,0 l/m 0 min 0 min 0 W/m 22,5 km/h (4 Bft) 97,87 %
07.01.2023 20:26 9,7 C 9,4 C 5,6 C 84 % 1006,3 hPa 0,0 l/m 0 min 0 min 0 W/m 16,1 km/h (3 Bft) 97,87 %
07.01.2023 20:28 9,7 C 9,4 C 5,6 C 84 % 1006,4 hPa 0,0 l/m 0 min 0 min 0 W/m 16,1 km/h (3 Bft) 95,74 %
07.01.2023 20:30 9,7 C 9,4 C 5,6 C 84 % 1006,5 hPa 0,0 l/m 0 min 0 min 0 W/m 19,3 km/h (3 Bft) 95,74 %
07.01.2023 20:32 9,8 C 9,4 C 5,6 C 83 % 1006,4 hPa 0,0 l/m 0 min 0 min 0 W/m 12,9 km/h (3 Bft) 93,62 %
07.01.2023 20:34 9,8 C 9,4 C 5,6 C 83 % 1006,6 hPa 0,0 l/m 0 min 0 min 0 W/m 22,5 km/h (4 Bft) 97,83 %
07.01.2023 20:36 9,8 C 9,4 C 5,6 C 83 % 1006,5 hPa 0,0 l/m 0 min 0 min 0 W/m 22,5 km/h (4 Bft) 97,87 %
07.01.2023 20:38 9,8 C 9,4 C 5,6 C 83 % 1006,6 hPa 0,0 l/m 0 min 0 min 0 W/m 16,1 km/h (3 Bft) 95,74 %
07.01.2023 20:40 9,9 C 9,4 C 5,6 C 83 % 1006,6 hPa 0,0 l/m 0 min 0 min 0 W/m 12,9 km/h (3 Bft) 95,74 %
07.01.2023 20:42 9,9 C 9,4 C 5,6 C 83 % 1006,5 hPa 0,0 l/m 0 min 0 min 0 W/m 9,7 km/h (2 Bft) 93,62 %
07.01.2023 20:44 9,9 C 9,4 C 5,6 C 83 % 1006,5 hPa 0,0 l/m 0 min 0 min 0 W/m 12,9 km/h (3 Bft) 95,74 %
07.01.2023 20:46 9,9 C 9,4 C 5,6 C 83 % 1006,5 hPa 0,0 l/m 0 min 0 min 0 W/m 16,1 km/h (3 Bft) 91,49 %
07.01.2023 20:48 10,0 C 9,4 C 5,6 C 83 % 1006,5 hPa 0,0 l/m 0 min 0 min 0 W/m 16,1 km/h (3 Bft) 95,65 %
07.01.2023 20:50 10,0 C 9,4 C 5,6 C 83 % 1006,5 hPa 0,0 l/m 0 min 2 min 0 W/m 16,1 km/h (3 Bft) 95,74 %
07.01.2023 20:52 10,0 C 9,4 C 5,6 C 83 % 1006,5 hPa 0,0 l/m 0 min 0 min 0 W/m 16,1 km/h (3 Bft) 97,87 %
07.01.2023 20:54 10,1 C 9,4 C 5,6 C 83 % 1006,5 hPa 0,0 l/m 0 min 0 min 0 W/m 12,9 km/h (3 Bft) 95,74 %
07.01.2023 20:56 10,1 C 9,4 C 5,6 C 83 % 1006,5 hPa 0,0 l/m 0 min 0 min 0 W/m 16,1 km/h (3 Bft) 95,74 %
07.01.2023 20:58 10,1 C 9,4 C 5,6 C 83 % 1006,6 hPa 0,0 l/m 0 min 0 min 0 W/m 16,1 km/h (3 Bft) 95,74 %
07.01.2023 21:00 10,1 C 9,4 C 5,6 C 83 % 1006,6 hPa 0,0 l/m 0 min 0 min 0 W/m 12,9 km/h (3 Bft) 97,87 %
07.01.2023 21:02 10,1 C 9,4 C 5,6 C 83 % 1006,6 hPa 0,0 l/m 0 min 0 min 0 W/m 6,4 km/h (2 Bft) 97,83 %
07.01.2023 21:04 10,1 C 9,4 C 5,6 C 83 % 1006,6 hPa 0,0 l/m 0 min 0 min 0 W/m 12,9 km/h (3 Bft) 95,74 %
07.01.2023 21:06 10,1 C 9,4 C 5,6 C 83 % 1006,5 hPa 0,0 l/m 0 min 0 min 0 W/m 12,9 km/h (3 Bft) 98,18 %
07.01.2023 21:08 10,1 C 9,4 C 5,6 C 83 % 1006,5 hPa 0,0 l/m 0 min 2 min 0 W/m 12,9 km/h (3 Bft) 97,87 %
07.01.2023 21:10 10,1 C 9,4 C 5,0 C 83 % 1006,6 hPa 0,0 l/m 0 min 2 min 0 W/m 6,4 km/h (2 Bft) 97,87 %
07.01.2023 21:12 10,1 C 9,4 C 5,0 C 83 % 1006,5 hPa 0,0 l/m 0 min 2 min 0 W/m 9,7 km/h (2 Bft) 97,96 %
07.01.2023 21:14 10,1 C 8,9 C 4,4 C 84 % 1006,5 hPa 0,0 l/m 0 min 2 min 0 W/m 6,4 km/h (2 Bft) 97,30 %
07.01.2023 21:16 10,1 C 8,9 C 4,4 C 84 % 1006,6 hPa 0,0 l/m 0 min 2 min 0 W/m 12,9 km/h (3 Bft) 95,65 %
07.01.2023 21:18 10,1 C 8,9 C 4,4 C 84 % 1006,6 hPa 0,0 l/m 0 min 2 min 0 W/m 6,4 km/h (2 Bft) 97,87 %
07.01.2023 21:20 10,1 C 8,9 C 4,4 C 85 % 1006,6 hPa 0,0 l/m 0 min 0 min 0 W/m 9,7 km/h (2 Bft) 97,87 %
07.01.2023 21:22 10,1 C 8,9 C 4,4 C 85 % 1006,6 hPa 0,0 l/m 0 min 0 min 0 W/m 12,9 km/h (3 Bft) 96,36 %
07.01.2023 21:24 10,1 C 9,4 C 4,4 C 85 % 1006,5 hPa 0,0 l/m 0 min 0 min 0 W/m 22,5 km/h (4 Bft) 97,87 %
07.01.2023 21:26 10,1 C 9,4 C 4,4 C 85 % 1006,6 hPa 0,0 l/m 0 min 2 min 0 W/m 29,0 km/h (5 Bft) 100,00 %
07.01.2023 21:28 10,1 C 9,4 C 4,4 C 85 % 1006,5 hPa 0,0 l/m 0 min 2 min 0 W/m 25,7 km/h (4 Bft) 97,87 %
07.01.2023 21:30 10,1 C 8,9 C 4,4 C 85 % 1006,5 hPa 0,0 l/m 0 min 2 min 0 W/m 32,2 km/h (5 Bft) 95,74 %
07.01.2023 21:32 10,2 C 8,9 C 4,4 C 85 % 1006,5 hPa 0,0 l/m 0 min 2 min 0 W/m 25,7 km/h (4 Bft) 95,74 %
07.01.2023 21:34 10,2 C 8,9 C 4,4 C 85 % 1006,5 hPa 0,0 l/m 0 min 2 min 0 W/m 19,3 km/h (3 Bft) 97,87 %
07.01.2023 21:36 10,2 C 8,9 C 4,4 C 85 % 1006,4 hPa 0,0 l/m 0 min 2 min 0 W/m 19,3 km/h (3 Bft) 97,87 %
07.01.2023 21:38 10,2 C 8,9 C 4,4 C 85 % 1006,4 hPa 0,2 l/m 0 min 0 min 0 W/m 12,9 km/h (3 Bft) 97,87 %
07.01.2023 21:40 10,2 C 9,4 C 4,4 C 85 % 1006,4 hPa 0,0 l/m 0 min 0 min 0 W/m 19,3 km/h (3 Bft) 97,83 %
07.01.2023 21:42 10,2 C 9,4 C 4,4 C 86 % 1006,5 hPa 0,0 l/m 0 min 2 min 0 W/m 16,1 km/h (3 Bft) 95,74 %
07.01.2023 21:44 10,2 C 9,4 C 5,0 C 86 % 1006,4 hPa 0,0 l/m 0 min 2 min 0 W/m 25,7 km/h (4 Bft) 97,87 %
07.01.2023 21:46 10,2 C 9,4 C 5,0 C 86 % 1006,4 hPa 0,0 l/m 0 min 0 min 0 W/m 25,7 km/h (4 Bft) 95,74 %
07.01.2023 21:48 10,2 C 9,4 C 5,0 C 86 % 1006,4 hPa 0,0 l/m 0 min 0 min 0 W/m 16,1 km/h (3 Bft) 97,87 %
07.01.2023 21:50 10,2 C 9,4 C 5,0 C 86 % 1006,4 hPa 0,0 l/m 0 min 2 min 0 W/m 29,0 km/h (5 Bft) 95,74 %
07.01.2023 21:52 10,2 C 9,4 C 5,0 C 86 % 1006,4 hPa 0,0 l/m 0 min 2 min 0 W/m 22,5 km/h (4 Bft) 95,74 %
07.01.2023 21:54 10,2 C 9,4 C 5,0 C 86 % 1006,4 hPa 0,0 l/m 0 min 0 min 0 W/m 16,1 km/h (3 Bft) 97,83 %
07.01.2023 21:56 10,2 C 9,4 C 5,0 C 86 % 1006,4 hPa 0,0 l/m 0 min 0 min 0 W/m 16,1 km/h (3 Bft) 97,87 %
07.01.2023 21:58 10,2 C 9,4 C 5,0 C 86 % 1006,2 hPa 0,0 l/m 0 min 0 min 0 W/m 19,3 km/h (3 Bft) 97,87 %
07.01.2023 22:00 10,2 C 9,4 C 5,0 C 86 % 1006,3 hPa 0,0 l/m 0 min 0 min 0 W/m 19,3 km/h (3 Bft) 100,00 %
07.01.2023 22:02 10,2 C 9,4 C 5,0 C 86 % 1006,3 hPa 0,0 l/m 0 min 0 min 0 W/m 16,1 km/h (3 Bft) 97,87 %
07.01.2023 22:04 10,2 C 9,4 C 5,0 C 86 % 1006,3 hPa 0,0 l/m 0 min 0 min 0 W/m 22,5 km/h (4 Bft) 100,00 %
07.01.2023 22:06 10,2 C 9,4 C 5,0 C 86 % 1006,2 hPa 0,0 l/m 0 min 0 min 0 W/m 22,5 km/h (4 Bft) 100,00 %
07.01.2023 22:08 10,2 C 9,4 C 5,0 C 86 % 1006,1 hPa 0,0 l/m 0 min 0 min 0 W/m 16,1 km/h (3 Bft) 97,87 %
07.01.2023 22:10 10,2 C 9,4 C 5,0 C 86 % 1006,2 hPa 0,0 l/m 0 min 0 min 0 W/m 22,5 km/h (4 Bft) 100,00 %
07.01.2023 22:12 10,2 C 9,4 C 5,0 C 87 % 1006,2 hPa 0,0 l/m 0 min 0 min 0 W/m 16,1 km/h (3 Bft) 97,87 %
07.01.2023 22:14 10,1 C 9,4 C 5,0 C 87 % 1006,2 hPa 0,0 l/m 0 min 0 min 0 W/m 16,1 km/h (3 Bft) 100,00 %
07.01.2023 22:16 10,1 C 9,4 C 5,0 C 87 % 1006,2 hPa 0,0 l/m 0 min 0 min 0 W/m 22,5 km/h (4 Bft) 100,00 %
07.01.2023 22:18 10,2 C 9,4 C 5,0 C 87 % 1006,2 hPa 0,0 l/m 0 min 0 min 0 W/m 22,5 km/h (4 Bft) 100,00 %
07.01.2023 22:20 10,2 C 9,4 C 5,0 C 87 % 1006,3 hPa 0,0 l/m 0 min 0 min 0 W/m 22,5 km/h (4 Bft) 100,00 %
07.01.2023 22:22 10,2 C 9,4 C 5,0 C 87 % 1006,3 hPa 0,0 l/m 0 min 0 min 0 W/m 16,1 km/h (3 Bft) 100,00 %
07.01.2023 22:24 10,2 C 9,4 C 5,0 C 87 % 1006,2 hPa 0,0 l/m 0 min 0 min 0 W/m 12,9 km/h (3 Bft) 100,00 %
07.01.2023 22:26 10,2 C 9,4 C 5,0 C 87 % 1006,3 hPa 0,0 l/m 0 min 0 min 0 W/m 6,4 km/h (2 Bft) 100,00 %
07.01.2023 22:28 10,2 C 9,4 C 5,0 C 87 % 1006,3 hPa 0,0 l/m 0 min 0 min 0 W/m 22,5 km/h (4 Bft) 100,00 %
07.01.2023 22:30 10,2 C 9,4 C 5,0 C 87 % 1006,4 hPa 0,0 l/m 0 min 0 min 0 W/m 22,5 km/h (4 Bft) 100,00 %
07.01.2023 22:32 10,2 C 9,4 C 5,6 C 87 % 1006,4 hPa 0,0 l/m 0 min 0 min 0 W/m 19,3 km/h (3 Bft) 100,00 %
07.01.2023 22:34 10,2 C 9,4 C 5,6 C 86 % 1006,3 hPa 0,0 l/m 0 min 0 min 0 W/m 19,3 km/h (3 Bft) 100,00 %
07.01.2023 22:36 10,2 C 9,4 C 5,6 C 86 % 1006,3 hPa 0,0 l/m 0 min 0 min 0 W/m 16,1 km/h (3 Bft) 100,00 %
07.01.2023 22:38 10,2 C 9,4 C 6,1 C 86 % 1006,3 hPa 0,0 l/m 0 min 0 min 0 W/m 22,5 km/h (4 Bft) 100,00 %
07.01.2023 22:40 10,2 C 9,4 C 6,1 C 86 % 1006,3 hPa 0,0 l/m 0 min 0 min 0 W/m 16,1 km/h (3 Bft) 100,00 %
07.01.2023 22:42 10,2 C 9,4 C 6,1 C 86 % 1006,3 hPa 0,0 l/m 0 min 0 min 0 W/m 16,1 km/h (3 Bft) 100,00 %
07.01.2023 22:44 10,3 C 9,4 C 6,1 C 86 % 1006,2 hPa 0,0 l/m 0 min 0 min 0 W/m 16,1 km/h (3 Bft) 100,00 %
07.01.2023 22:46 10,3 C 9,4 C 6,1 C 86 % 1006,3 hPa 0,0 l/m 0 min 0 min 0 W/m 12,9 km/h (3 Bft) 97,87 %
07.01.2023 22:48 10,2 C 9,4 C 6,1 C 86 % 1006,3 hPa 0,0 l/m 0 min 0 min 0 W/m 6,4 km/h (2 Bft) 100,00 %
07.01.2023 22:50 10,3 C 9,4 C 6,1 C 86 % 1006,3 hPa 0,0 l/m 0 min 0 min 0 W/m 16,1 km/h (3 Bft) 97,87 %
07.01.2023 22:52 10,3 C 9,4 C 6,1 C 86 % 1006,3 hPa 0,0 l/m 0 min 0 min 0 W/m 12,9 km/h (3 Bft) 97,87 %
07.01.2023 22:54 10,3 C 9,4 C 6,1 C 86 % 1006,3 hPa 0,0 l/m 0 min 0 min 0 W/m 12,9 km/h (3 Bft) 97,83 %
07.01.2023 22:56 10,3 C 9,4 C 6,1 C 86 % 1006,3 hPa 0,0 l/m 0 min 0 min 0 W/m 19,3 km/h (3 Bft) 97,87 %
07.01.2023 22:58 10,3 C 9,4 C 6,1 C 86 % 1006,3 hPa 0,0 l/m 0 min 0 min 0 W/m 12,9 km/h (3 Bft) 97,87 %
07.01.2023 23:00 10,3 C 9,4 C 6,1 C 86 % 1006,3 hPa 0,0 l/m 0 min 0 min 0 W/m 12,9 km/h (3 Bft) 100,00 %
07.01.2023 23:02 10,3 C 9,4 C 6,1 C 86 % 1006,2 hPa 0,0 l/m 0 min 0 min 0 W/m 16,1 km/h (3 Bft) 97,87 %
07.01.2023 23:04 10,2 C 9,4 C 6,1 C 86 % 1006,3 hPa 0,0 l/m 0 min 0 min 0 W/m 19,3 km/h (3 Bft) 93,62 %
07.01.2023 23:06 10,3 C 9,4 C 6,1 C 86 % 1006,2 hPa 0,0 l/m 0 min 0 min 0 W/m 12,9 km/h (3 Bft) 95,74 %
07.01.2023 23:08 10,3 C 9,4 C 6,1 C 86 % 1006,1 hPa 0,0 l/m 0 min 0 min 0 W/m 9,7 km/h (2 Bft) 95,65 %
07.01.2023 23:10 10,3 C 9,4 C 6,1 C 86 % 1006,0 hPa 0,0 l/m 0 min 0 min 0 W/m 16,1 km/h (3 Bft) 95,74 %
07.01.2023 23:12 10,3 C 9,4 C 6,1 C 86 % 1006,1 hPa 0,0 l/m 0 min 0 min 0 W/m 16,1 km/h (3 Bft) 95,74 %
07.01.2023 23:14 10,3 C 9,4 C 6,1 C 86 % 1006,1 hPa 0,0 l/m 0 min 0 min 0 W/m 19,3 km/h (3 Bft) 95,74 %
07.01.2023 23:16 10,3 C 9,4 C 6,1 C 86 % 1006,1 hPa 0,0 l/m 0 min 0 min 0 W/m 16,1 km/h (3 Bft) 95,74 %
07.01.2023 23:18 10,3 C 9,4 C 6,1 C 86 % 1006,2 hPa 0,0 l/m 0 min 0 min 0 W/m 16,1 km/h (3 Bft) 94,87 %
07.01.2023 23:20 10,3 C 9,4 C 6,1 C 86 % 1006,2 hPa 0,0 l/m 0 min 0 min 0 W/m 12,9 km/h (3 Bft) 93,62 %
07.01.2023 23:22 10,3 C 9,4 C 6,1 C 86 % 1006,2 hPa 0,0 l/m 0 min 0 min 0 W/m 19,3 km/h (3 Bft) 93,62 %
07.01.2023 23:24 10,3 C 9,4 C 6,1 C 86 % 1006,2 hPa 0,0 l/m 0 min 0 min 0 W/m 22,5 km/h (4 Bft) 89,36 %
07.01.2023 23:26 10,3 C 9,4 C 6,1 C 86 % 1006,1 hPa 0,0 l/m 0 min 0 min 0 W/m 16,1 km/h (3 Bft) 93,48 %
07.01.2023 23:28 10,3 C 9,4 C 6,1 C 86 % 1006,2 hPa 0,0 l/m 0 min 0 min 0 W/m 19,3 km/h (3 Bft) 93,62 %
07.01.2023 23:30 10,3 C 10,0 C 6,1 C 86 % 1006,1 hPa 0,0 l/m 0 min 0 min 0 W/m 16,1 km/h (3 Bft) 93,62 %
07.01.2023 23:32 10,4 C 9,4 C 6,1 C 86 % 1006,2 hPa 0,0 l/m 0 min 0 min 0 W/m 16,1 km/h (3 Bft) 93,62 %
07.01.2023 23:34 10,4 C 10,0 C 6,1 C 86 % 1006,1 hPa 0,0 l/m 0 min 0 min 0 W/m 19,3 km/h (3 Bft) 93,62 %
07.01.2023 23:36 10,4 C 10,0 C 6,1 C 86 % 1006,0 hPa 0,0 l/m 0 min 0 min 0 W/m 12,9 km/h (3 Bft) 93,62 %
07.01.2023 23:38 10,4 C 10,0 C 6,1 C 86 % 1006,1 hPa 0,0 l/m 0 min 0 min 0 W/m 19,3 km/h (3 Bft) 93,62 %
07.01.2023 23:40 10,4 C 10,0 C 6,1 C 86 % 1006,0 hPa 0,0 l/m 0 min 0 min 0 W/m 25,7 km/h (4 Bft) 93,48 %
07.01.2023 23:42 10,4 C 10,0 C 6,1 C 86 % 1006,0 hPa 0,0 l/m 0 min 0 min 0 W/m 25,7 km/h (4 Bft) 87,23 %
07.01.2023 23:44 10,4 C 10,0 C 6,1 C 86 % 1006,0 hPa 0,0 l/m 0 min 0 min 0 W/m 19,3 km/h (3 Bft) 93,62 %
07.01.2023 23:46 10,5 C 9,4 C 6,1 C 86 % 1006,1 hPa 0,0 l/m 0 min 0 min 0 W/m 16,1 km/h (3 Bft) 93,62 %
07.01.2023 23:48 10,5 C 9,4 C 5,6 C 86 % 1006,0 hPa 0,0 l/m 0 min 0 min 0 W/m 16,1 km/h (3 Bft) 95,74 %
07.01.2023 23:50 10,5 C 9,4 C 5,6 C 86 % 1006,0 hPa 0,0 l/m 0 min 0 min 0 W/m 16,1 km/h (3 Bft) 95,74 %
07.01.2023 23:52 10,5 C 9,4 C 5,6 C 87 % 1006,0 hPa 0,0 l/m 0 min 0 min 0 W/m 19,3 km/h (3 Bft) 95,74 %
07.01.2023 23:54 10,4 C 9,4 C 5,6 C 87 % 1006,1 hPa 0,0 l/m 0 min 0 min 0 W/m 12,9 km/h (3 Bft) 93,48 %
07.01.2023 23:56 10,4 C 9,4 C 5,6 C 87 % 1006,1 hPa 0,0 l/m 0 min 0 min 0 W/m 12,9 km/h (3 Bft) 100,00 %
07.01.2023 23:59 10,4 C 9,4 C 5,6 C 87 % 1006,0 hPa 0,0 l/m 0 min 0 min 0 W/m 19,3 km/h (3 Bft) 100,00 %
_ Min-Zeit 06:50 06:38 06:32 13:44 23:10 - - - - 05:18 07:50
Minimum _ 8,1 C 6,7 C 4,4 C 72 % 1006,0 hPa - - - - 0,0 km/h (0 Bft) 42,86 %
_ Max-Zeit 13:38 13:24 12:32 02:10 00:12 01:14 10:30 19:12 12:56 13:08 00:08
Maximum _ 12,6 C 16,7 C 7,8 C 94 % 1018,3 hPa 0,2 l/m 2 min 2 min 320 W/m 38,6 km/h
S-SW (5 Bft)
100,00 %
Durchschnitt _ 10,2 C 9,7 C 6,2 C 86 % 1011,8 hPa #0,4 l/m #3:26 h #40 min. 119 W/m 14,1 km/h (3 Bft) 97,06 %
© 2023 W. Hausmann